<?xml version="1.0" encoding="UTF-8" standalone="no" ?>
<gpx xmlns="http://www.topografix.com/GPX/1/1" xmlns:xsi="http://www.w3.org/2001/XMLSchema-instance" xsi:schemaLocation="http://www.topografix.com/GPX/1/1 http://www.topografix.com/GPX/1/1/gpx.xsd" version="1.1" creator="VisuGPX - https://www.visugpx.com">
  <metadata>
    <name>Beaurecueil Roque-Haute par Les Hamelins</name>
    <desc><![CDATA[Montée assez sévère au début. Mais vue magnifique sur toute la région.]]></desc>
  </metadata>
  <trk>
    <name><![CDATA[Beaurecueil Roque-Haute par Les Hamelins_1]]></name>
    <trkseg>
      <trkpt lat="43.52403" lon="5.54747">
        <ele>318.8</ele>
        <time>2021-11-16T12:54:19Z</time>
      </trkpt>
      <trkpt lat="43.5241" lon="5.54747">
        <ele>303.6</ele>
        <time>2021-11-16T12:54:30Z</time>
      </trkpt>
      <trkpt lat="43.52418" lon="5.5474">
        <ele>286.8</ele>
        <time>2021-11-16T12:54:40Z</time>
      </trkpt>
      <trkpt lat="43.5243" lon="5.5473">
        <ele>284.8</ele>
        <time>2021-11-16T12:54:51Z</time>
      </trkpt>
      <trkpt lat="43.52438" lon="5.54727">
        <ele>302.8</ele>
        <time>2021-11-16T12:55:03Z</time>
      </trkpt>
      <trkpt lat="43.52452" lon="5.54717">
        <ele>288.3</ele>
        <time>2021-11-16T12:55:14Z</time>
      </trkpt>
      <trkpt lat="43.52464" lon="5.54711">
        <ele>294</ele>
        <time>2021-11-16T12:55:24Z</time>
      </trkpt>
      <trkpt lat="43.5247" lon="5.54709">
        <ele>310</ele>
        <time>2021-11-16T12:55:35Z</time>
      </trkpt>
      <trkpt lat="43.52472" lon="5.5471">
        <ele>306.3</ele>
        <time>2021-11-16T12:55:46Z</time>
      </trkpt>
      <trkpt lat="43.52472" lon="5.5471">
        <ele>290.5</ele>
        <time>2021-11-16T12:55:56Z</time>
      </trkpt>
      <trkpt lat="43.52471" lon="5.5471">
        <ele>278.9</ele>
        <time>2021-11-16T12:56:07Z</time>
      </trkpt>
      <trkpt lat="43.52471" lon="5.5471">
        <ele>312.2</ele>
        <time>2021-11-16T12:56:18Z</time>
      </trkpt>
      <trkpt lat="43.52471" lon="5.5471">
        <ele>312.4</ele>
        <time>2021-11-16T12:56:29Z</time>
      </trkpt>
      <trkpt lat="43.52471" lon="5.5471">
        <ele>285.7</ele>
        <time>2021-11-16T12:56:39Z</time>
      </trkpt>
      <trkpt lat="43.52472" lon="5.54711">
        <ele>297.1</ele>
        <time>2021-11-16T12:56:50Z</time>
      </trkpt>
      <trkpt lat="43.52473" lon="5.54709">
        <ele>275.8</ele>
        <time>2021-11-16T12:57:00Z</time>
      </trkpt>
      <trkpt lat="43.52475" lon="5.54698">
        <ele>312.8</ele>
        <time>2021-11-16T12:57:10Z</time>
      </trkpt>
      <trkpt lat="43.52483" lon="5.54694">
        <ele>298</ele>
        <time>2021-11-16T12:57:21Z</time>
      </trkpt>
      <trkpt lat="43.5249" lon="5.54687">
        <ele>308.7</ele>
        <time>2021-11-16T12:57:32Z</time>
      </trkpt>
      <trkpt lat="43.525" lon="5.54681">
        <ele>272.9</ele>
        <time>2021-11-16T12:57:42Z</time>
      </trkpt>
      <trkpt lat="43.52513" lon="5.54679">
        <ele>303.9</ele>
        <time>2021-11-16T12:57:53Z</time>
      </trkpt>
      <trkpt lat="43.52526" lon="5.54678">
        <ele>307.7</ele>
        <time>2021-11-16T12:58:04Z</time>
      </trkpt>
      <trkpt lat="43.52536" lon="5.54679">
        <ele>300.3</ele>
        <time>2021-11-16T12:58:14Z</time>
      </trkpt>
      <trkpt lat="43.52547" lon="5.54683">
        <ele>290.9</ele>
        <time>2021-11-16T12:58:24Z</time>
      </trkpt>
      <trkpt lat="43.52556" lon="5.54689">
        <ele>296.4</ele>
        <time>2021-11-16T12:58:34Z</time>
      </trkpt>
      <trkpt lat="43.52567" lon="5.54695">
        <ele>303.9</ele>
        <time>2021-11-16T12:58:44Z</time>
      </trkpt>
      <trkpt lat="43.5257" lon="5.547">
        <ele>302.1</ele>
        <time>2021-11-16T12:58:55Z</time>
      </trkpt>
      <trkpt lat="43.5257" lon="5.54703">
        <ele>280</ele>
        <time>2021-11-16T12:59:06Z</time>
      </trkpt>
      <trkpt lat="43.52575" lon="5.54706">
        <ele>296.1</ele>
        <time>2021-11-16T12:59:17Z</time>
      </trkpt>
      <trkpt lat="43.52586" lon="5.5471">
        <ele>286.7</ele>
        <time>2021-11-16T12:59:28Z</time>
      </trkpt>
      <trkpt lat="43.52596" lon="5.54718">
        <ele>284.3</ele>
        <time>2021-11-16T12:59:38Z</time>
      </trkpt>
      <trkpt lat="43.52606" lon="5.54723">
        <ele>312.3</ele>
        <time>2021-11-16T12:59:49Z</time>
      </trkpt>
      <trkpt lat="43.52616" lon="5.54729">
        <ele>311.7</ele>
        <time>2021-11-16T13:00:00Z</time>
      </trkpt>
      <trkpt lat="43.52627" lon="5.54735">
        <ele>322.8</ele>
        <time>2021-11-16T13:00:10Z</time>
      </trkpt>
      <trkpt lat="43.52636" lon="5.54741">
        <ele>314.7</ele>
        <time>2021-11-16T13:00:20Z</time>
      </trkpt>
      <trkpt lat="43.52644" lon="5.54745">
        <ele>307.4</ele>
        <time>2021-11-16T13:00:31Z</time>
      </trkpt>
      <trkpt lat="43.52654" lon="5.54753">
        <ele>314.8</ele>
        <time>2021-11-16T13:00:42Z</time>
      </trkpt>
      <trkpt lat="43.52662" lon="5.54761">
        <ele>318.8</ele>
        <time>2021-11-16T13:00:52Z</time>
      </trkpt>
      <trkpt lat="43.52673" lon="5.54765">
        <ele>309.2</ele>
        <time>2021-11-16T13:01:03Z</time>
      </trkpt>
      <trkpt lat="43.52684" lon="5.54773">
        <ele>315.8</ele>
        <time>2021-11-16T13:01:14Z</time>
      </trkpt>
      <trkpt lat="43.52693" lon="5.5478">
        <ele>302.2</ele>
        <time>2021-11-16T13:01:25Z</time>
      </trkpt>
      <trkpt lat="43.52703" lon="5.54785">
        <ele>310.9</ele>
        <time>2021-11-16T13:01:36Z</time>
      </trkpt>
      <trkpt lat="43.52714" lon="5.54793">
        <ele>313.7</ele>
        <time>2021-11-16T13:01:47Z</time>
      </trkpt>
      <trkpt lat="43.52725" lon="5.54797">
        <ele>313.3</ele>
        <time>2021-11-16T13:01:57Z</time>
      </trkpt>
      <trkpt lat="43.52735" lon="5.54799">
        <ele>318.5</ele>
        <time>2021-11-16T13:02:08Z</time>
      </trkpt>
      <trkpt lat="43.52735" lon="5.54799">
        <ele>311.8</ele>
        <time>2021-11-16T13:02:18Z</time>
      </trkpt>
      <trkpt lat="43.52734" lon="5.54799">
        <ele>319.4</ele>
        <time>2021-11-16T13:02:29Z</time>
      </trkpt>
      <trkpt lat="43.52735" lon="5.54799">
        <ele>307.3</ele>
        <time>2021-11-16T13:02:40Z</time>
      </trkpt>
      <trkpt lat="43.52735" lon="5.54799">
        <ele>331.3</ele>
        <time>2021-11-16T13:02:51Z</time>
      </trkpt>
      <trkpt lat="43.52735" lon="5.54799">
        <ele>328.8</ele>
        <time>2021-11-16T13:03:01Z</time>
      </trkpt>
      <trkpt lat="43.52736" lon="5.54801">
        <ele>308.5</ele>
        <time>2021-11-16T13:03:12Z</time>
      </trkpt>
      <trkpt lat="43.52736" lon="5.54801">
        <ele>321.8</ele>
        <time>2021-11-16T13:03:23Z</time>
      </trkpt>
      <trkpt lat="43.52735" lon="5.54801">
        <ele>313.5</ele>
        <time>2021-11-16T13:03:34Z</time>
      </trkpt>
      <trkpt lat="43.52735" lon="5.548">
        <ele>301.4</ele>
        <time>2021-11-16T13:03:45Z</time>
      </trkpt>
      <trkpt lat="43.52735" lon="5.54793">
        <ele>307.6</ele>
        <time>2021-11-16T13:03:55Z</time>
      </trkpt>
      <trkpt lat="43.52734" lon="5.54781">
        <ele>327.4</ele>
        <time>2021-11-16T13:04:06Z</time>
      </trkpt>
      <trkpt lat="43.52744" lon="5.54779">
        <ele>308.8</ele>
        <time>2021-11-16T13:04:16Z</time>
      </trkpt>
      <trkpt lat="43.52753" lon="5.54781">
        <ele>301</ele>
        <time>2021-11-16T13:04:27Z</time>
      </trkpt>
      <trkpt lat="43.52764" lon="5.54789">
        <ele>322.1</ele>
        <time>2021-11-16T13:04:37Z</time>
      </trkpt>
      <trkpt lat="43.52776" lon="5.54796">
        <ele>314.2</ele>
        <time>2021-11-16T13:04:48Z</time>
      </trkpt>
      <trkpt lat="43.52785" lon="5.54795">
        <ele>317.4</ele>
        <time>2021-11-16T13:04:58Z</time>
      </trkpt>
      <trkpt lat="43.52792" lon="5.54795">
        <ele>310.2</ele>
        <time>2021-11-16T13:05:09Z</time>
      </trkpt>
      <trkpt lat="43.52801" lon="5.54796">
        <ele>308.1</ele>
        <time>2021-11-16T13:05:19Z</time>
      </trkpt>
      <trkpt lat="43.52807" lon="5.54796">
        <ele>340.2</ele>
        <time>2021-11-16T13:05:29Z</time>
      </trkpt>
      <trkpt lat="43.52803" lon="5.54795">
        <ele>316.6</ele>
        <time>2021-11-16T13:05:40Z</time>
      </trkpt>
      <trkpt lat="43.52795" lon="5.54794">
        <ele>341.3</ele>
        <time>2021-11-16T13:05:50Z</time>
      </trkpt>
      <trkpt lat="43.52789" lon="5.54798">
        <ele>320.2</ele>
        <time>2021-11-16T13:06:01Z</time>
      </trkpt>
      <trkpt lat="43.52793" lon="5.54806">
        <ele>313.3</ele>
        <time>2021-11-16T13:06:11Z</time>
      </trkpt>
      <trkpt lat="43.528" lon="5.54806">
        <ele>325.6</ele>
        <time>2021-11-16T13:06:21Z</time>
      </trkpt>
      <trkpt lat="43.52806" lon="5.54813">
        <ele>331</ele>
        <time>2021-11-16T13:06:32Z</time>
      </trkpt>
      <trkpt lat="43.52813" lon="5.54818">
        <ele>310.7</ele>
        <time>2021-11-16T13:06:42Z</time>
      </trkpt>
      <trkpt lat="43.52819" lon="5.54825">
        <ele>307.6</ele>
        <time>2021-11-16T13:06:52Z</time>
      </trkpt>
      <trkpt lat="43.52823" lon="5.54838">
        <ele>286.2</ele>
        <time>2021-11-16T13:07:03Z</time>
      </trkpt>
      <trkpt lat="43.5283" lon="5.54847">
        <ele>314.9</ele>
        <time>2021-11-16T13:07:13Z</time>
      </trkpt>
      <trkpt lat="43.52837" lon="5.54859">
        <ele>312.2</ele>
        <time>2021-11-16T13:07:24Z</time>
      </trkpt>
      <trkpt lat="43.52846" lon="5.54866">
        <ele>313.2</ele>
        <time>2021-11-16T13:07:35Z</time>
      </trkpt>
      <trkpt lat="43.52853" lon="5.54877">
        <ele>314.6</ele>
        <time>2021-11-16T13:07:46Z</time>
      </trkpt>
      <trkpt lat="43.52861" lon="5.54887">
        <ele>300.6</ele>
        <time>2021-11-16T13:07:57Z</time>
      </trkpt>
      <trkpt lat="43.52869" lon="5.54894">
        <ele>301.4</ele>
        <time>2021-11-16T13:08:08Z</time>
      </trkpt>
      <trkpt lat="43.52876" lon="5.54899">
        <ele>309.4</ele>
        <time>2021-11-16T13:08:19Z</time>
      </trkpt>
      <trkpt lat="43.52876" lon="5.54896">
        <ele>314.4</ele>
        <time>2021-11-16T13:08:30Z</time>
      </trkpt>
      <trkpt lat="43.52881" lon="5.54904">
        <ele>306.8</ele>
        <time>2021-11-16T13:08:41Z</time>
      </trkpt>
      <trkpt lat="43.52888" lon="5.54912">
        <ele>315.7</ele>
        <time>2021-11-16T13:08:52Z</time>
      </trkpt>
      <trkpt lat="43.52896" lon="5.5492">
        <ele>314</ele>
        <time>2021-11-16T13:09:02Z</time>
      </trkpt>
      <trkpt lat="43.52901" lon="5.54926">
        <ele>316</ele>
        <time>2021-11-16T13:09:12Z</time>
      </trkpt>
      <trkpt lat="43.52904" lon="5.54928">
        <ele>318.1</ele>
        <time>2021-11-16T13:09:22Z</time>
      </trkpt>
      <trkpt lat="43.52907" lon="5.54936">
        <ele>321.4</ele>
        <time>2021-11-16T13:09:33Z</time>
      </trkpt>
      <trkpt lat="43.52911" lon="5.5494">
        <ele>316.5</ele>
        <time>2021-11-16T13:09:43Z</time>
      </trkpt>
      <trkpt lat="43.52915" lon="5.54943">
        <ele>322.4</ele>
        <time>2021-11-16T13:09:54Z</time>
      </trkpt>
      <trkpt lat="43.52914" lon="5.54941">
        <ele>323.9</ele>
        <time>2021-11-16T13:10:04Z</time>
      </trkpt>
      <trkpt lat="43.52914" lon="5.54941">
        <ele>304.3</ele>
        <time>2021-11-16T13:10:15Z</time>
      </trkpt>
      <trkpt lat="43.52919" lon="5.54941">
        <ele>322.2</ele>
        <time>2021-11-16T13:10:26Z</time>
      </trkpt>
      <trkpt lat="43.52923" lon="5.54943">
        <ele>311.3</ele>
        <time>2021-11-16T13:10:36Z</time>
      </trkpt>
      <trkpt lat="43.52929" lon="5.54954">
        <ele>322.4</ele>
        <time>2021-11-16T13:10:46Z</time>
      </trkpt>
      <trkpt lat="43.52936" lon="5.54962">
        <ele>322.4</ele>
        <time>2021-11-16T13:10:56Z</time>
      </trkpt>
      <trkpt lat="43.52943" lon="5.54957">
        <ele>324.3</ele>
        <time>2021-11-16T13:11:07Z</time>
      </trkpt>
      <trkpt lat="43.5295" lon="5.5495">
        <ele>290.5</ele>
        <time>2021-11-16T13:11:18Z</time>
      </trkpt>
      <trkpt lat="43.52962" lon="5.54943">
        <ele>310.4</ele>
        <time>2021-11-16T13:11:29Z</time>
      </trkpt>
      <trkpt lat="43.52974" lon="5.5494">
        <ele>317.1</ele>
        <time>2021-11-16T13:11:40Z</time>
      </trkpt>
      <trkpt lat="43.52984" lon="5.54942">
        <ele>310.1</ele>
        <time>2021-11-16T13:11:51Z</time>
      </trkpt>
      <trkpt lat="43.52993" lon="5.54942">
        <ele>315.4</ele>
        <time>2021-11-16T13:12:01Z</time>
      </trkpt>
      <trkpt lat="43.53004" lon="5.54932">
        <ele>340.3</ele>
        <time>2021-11-16T13:12:12Z</time>
      </trkpt>
      <trkpt lat="43.53009" lon="5.54925">
        <ele>335.4</ele>
        <time>2021-11-16T13:12:22Z</time>
      </trkpt>
      <trkpt lat="43.53012" lon="5.54912">
        <ele>317.6</ele>
        <time>2021-11-16T13:12:32Z</time>
      </trkpt>
      <trkpt lat="43.5301" lon="5.54899">
        <ele>314.3</ele>
        <time>2021-11-16T13:12:43Z</time>
      </trkpt>
      <trkpt lat="43.53006" lon="5.54892">
        <ele>325.4</ele>
        <time>2021-11-16T13:12:54Z</time>
      </trkpt>
      <trkpt lat="43.53006" lon="5.54894">
        <ele>329.6</ele>
        <time>2021-11-16T13:13:04Z</time>
      </trkpt>
      <trkpt lat="43.52999" lon="5.54885">
        <ele>320.8</ele>
        <time>2021-11-16T13:13:14Z</time>
      </trkpt>
      <trkpt lat="43.52995" lon="5.5488">
        <ele>310.9</ele>
        <time>2021-11-16T13:13:25Z</time>
      </trkpt>
      <trkpt lat="43.53003" lon="5.54886">
        <ele>316</ele>
        <time>2021-11-16T13:13:35Z</time>
      </trkpt>
      <trkpt lat="43.53013" lon="5.5489">
        <ele>283</ele>
        <time>2021-11-16T13:13:46Z</time>
      </trkpt>
      <trkpt lat="43.53024" lon="5.54886">
        <ele>332.3</ele>
        <time>2021-11-16T13:13:56Z</time>
      </trkpt>
      <trkpt lat="43.53029" lon="5.54883">
        <ele>332.2</ele>
        <time>2021-11-16T13:14:06Z</time>
      </trkpt>
      <trkpt lat="43.53037" lon="5.54875">
        <ele>332.1</ele>
        <time>2021-11-16T13:14:17Z</time>
      </trkpt>
      <trkpt lat="43.53045" lon="5.54867">
        <ele>323.5</ele>
        <time>2021-11-16T13:14:27Z</time>
      </trkpt>
      <trkpt lat="43.53047" lon="5.54861">
        <ele>335</ele>
        <time>2021-11-16T13:14:38Z</time>
      </trkpt>
      <trkpt lat="43.53047" lon="5.5486">
        <ele>323.6</ele>
        <time>2021-11-16T13:14:48Z</time>
      </trkpt>
      <trkpt lat="43.53047" lon="5.5486">
        <ele>313.5</ele>
        <time>2021-11-16T13:14:59Z</time>
      </trkpt>
      <trkpt lat="43.53053" lon="5.54853">
        <ele>330.8</ele>
        <time>2021-11-16T13:15:09Z</time>
      </trkpt>
      <trkpt lat="43.53057" lon="5.54846">
        <ele>301.4</ele>
        <time>2021-11-16T13:15:20Z</time>
      </trkpt>
      <trkpt lat="43.53061" lon="5.54837">
        <ele>328.5</ele>
        <time>2021-11-16T13:15:30Z</time>
      </trkpt>
      <trkpt lat="43.53064" lon="5.54831">
        <ele>311.9</ele>
        <time>2021-11-16T13:15:41Z</time>
      </trkpt>
      <trkpt lat="43.5307" lon="5.54827">
        <ele>315.8</ele>
        <time>2021-11-16T13:15:52Z</time>
      </trkpt>
      <trkpt lat="43.53079" lon="5.54828">
        <ele>318.8</ele>
        <time>2021-11-16T13:16:03Z</time>
      </trkpt>
      <trkpt lat="43.53084" lon="5.54824">
        <ele>337.3</ele>
        <time>2021-11-16T13:16:13Z</time>
      </trkpt>
      <trkpt lat="43.53082" lon="5.54824">
        <ele>338.1</ele>
        <time>2021-11-16T13:16:23Z</time>
      </trkpt>
      <trkpt lat="43.53081" lon="5.54824">
        <ele>330</ele>
        <time>2021-11-16T13:16:34Z</time>
      </trkpt>
      <trkpt lat="43.53081" lon="5.54822">
        <ele>333.4</ele>
        <time>2021-11-16T13:16:45Z</time>
      </trkpt>
      <trkpt lat="43.53079" lon="5.5482">
        <ele>341</ele>
        <time>2021-11-16T13:16:55Z</time>
      </trkpt>
      <trkpt lat="43.53081" lon="5.54822">
        <ele>328.7</ele>
        <time>2021-11-16T13:17:06Z</time>
      </trkpt>
      <trkpt lat="43.53082" lon="5.54824">
        <ele>337</ele>
        <time>2021-11-16T13:17:17Z</time>
      </trkpt>
      <trkpt lat="43.53082" lon="5.54824">
        <ele>330.2</ele>
        <time>2021-11-16T13:17:27Z</time>
      </trkpt>
      <trkpt lat="43.53084" lon="5.54824">
        <ele>328.2</ele>
        <time>2021-11-16T13:17:38Z</time>
      </trkpt>
      <trkpt lat="43.53085" lon="5.54822">
        <ele>336.4</ele>
        <time>2021-11-16T13:17:49Z</time>
      </trkpt>
      <trkpt lat="43.53091" lon="5.54825">
        <ele>343.3</ele>
        <time>2021-11-16T13:18:00Z</time>
      </trkpt>
      <trkpt lat="43.53102" lon="5.54821">
        <ele>332.8</ele>
        <time>2021-11-16T13:18:10Z</time>
      </trkpt>
      <trkpt lat="43.53109" lon="5.54819">
        <ele>344</ele>
        <time>2021-11-16T13:18:21Z</time>
      </trkpt>
      <trkpt lat="43.53118" lon="5.54816">
        <ele>336.7</ele>
        <time>2021-11-16T13:18:32Z</time>
      </trkpt>
      <trkpt lat="43.53125" lon="5.54811">
        <ele>329.3</ele>
        <time>2021-11-16T13:18:42Z</time>
      </trkpt>
      <trkpt lat="43.53131" lon="5.54809">
        <ele>347.1</ele>
        <time>2021-11-16T13:18:53Z</time>
      </trkpt>
      <trkpt lat="43.53135" lon="5.54808">
        <ele>351.1</ele>
        <time>2021-11-16T13:19:03Z</time>
      </trkpt>
      <trkpt lat="43.53135" lon="5.54808">
        <ele>332.6</ele>
        <time>2021-11-16T13:19:14Z</time>
      </trkpt>
      <trkpt lat="43.5314" lon="5.54806">
        <ele>343.8</ele>
        <time>2021-11-16T13:19:25Z</time>
      </trkpt>
      <trkpt lat="43.53147" lon="5.548">
        <ele>349.1</ele>
        <time>2021-11-16T13:19:36Z</time>
      </trkpt>
      <trkpt lat="43.53153" lon="5.54799">
        <ele>370.9</ele>
        <time>2021-11-16T13:19:47Z</time>
      </trkpt>
      <trkpt lat="43.53156" lon="5.54798">
        <ele>345.7</ele>
        <time>2021-11-16T13:19:58Z</time>
      </trkpt>
      <trkpt lat="43.53155" lon="5.54798">
        <ele>349.5</ele>
        <time>2021-11-16T13:20:08Z</time>
      </trkpt>
      <trkpt lat="43.53155" lon="5.54798">
        <ele>342.1</ele>
        <time>2021-11-16T13:20:18Z</time>
      </trkpt>
      <trkpt lat="43.53155" lon="5.54798">
        <ele>351.4</ele>
        <time>2021-11-16T13:20:28Z</time>
      </trkpt>
      <trkpt lat="43.53157" lon="5.54799">
        <ele>361.6</ele>
        <time>2021-11-16T13:20:39Z</time>
      </trkpt>
      <trkpt lat="43.53167" lon="5.54801">
        <ele>354</ele>
        <time>2021-11-16T13:20:49Z</time>
      </trkpt>
      <trkpt lat="43.53176" lon="5.54803">
        <ele>353</ele>
        <time>2021-11-16T13:21:00Z</time>
      </trkpt>
      <trkpt lat="43.53187" lon="5.54801">
        <ele>359.8</ele>
        <time>2021-11-16T13:21:11Z</time>
      </trkpt>
      <trkpt lat="43.53192" lon="5.54798">
        <ele>368.8</ele>
        <time>2021-11-16T13:21:21Z</time>
      </trkpt>
      <trkpt lat="43.53196" lon="5.54797">
        <ele>363.5</ele>
        <time>2021-11-16T13:21:32Z</time>
      </trkpt>
      <trkpt lat="43.53195" lon="5.54797">
        <ele>362.3</ele>
        <time>2021-11-16T13:21:43Z</time>
      </trkpt>
      <trkpt lat="43.53195" lon="5.54797">
        <ele>360.3</ele>
        <time>2021-11-16T13:21:53Z</time>
      </trkpt>
      <trkpt lat="43.53199" lon="5.54789">
        <ele>342.9</ele>
        <time>2021-11-16T13:22:03Z</time>
      </trkpt>
      <trkpt lat="43.53203" lon="5.54783">
        <ele>356.8</ele>
        <time>2021-11-16T13:22:13Z</time>
      </trkpt>
      <trkpt lat="43.53205" lon="5.54774">
        <ele>363</ele>
        <time>2021-11-16T13:22:24Z</time>
      </trkpt>
      <trkpt lat="43.53208" lon="5.54765">
        <ele>351.6</ele>
        <time>2021-11-16T13:22:34Z</time>
      </trkpt>
      <trkpt lat="43.53209" lon="5.5476">
        <ele>335.7</ele>
        <time>2021-11-16T13:22:44Z</time>
      </trkpt>
      <trkpt lat="43.53208" lon="5.5476">
        <ele>362.9</ele>
        <time>2021-11-16T13:22:55Z</time>
      </trkpt>
      <trkpt lat="43.53208" lon="5.5476">
        <ele>373.8</ele>
        <time>2021-11-16T13:23:05Z</time>
      </trkpt>
      <trkpt lat="43.53208" lon="5.54758">
        <ele>360.1</ele>
        <time>2021-11-16T13:23:16Z</time>
      </trkpt>
      <trkpt lat="43.53209" lon="5.54757">
        <ele>363.9</ele>
        <time>2021-11-16T13:23:26Z</time>
      </trkpt>
      <trkpt lat="43.53209" lon="5.54757">
        <ele>376</ele>
        <time>2021-11-16T13:23:36Z</time>
      </trkpt>
      <trkpt lat="43.53209" lon="5.54757">
        <ele>346</ele>
        <time>2021-11-16T13:23:46Z</time>
      </trkpt>
      <trkpt lat="43.53209" lon="5.54758">
        <ele>371.4</ele>
        <time>2021-11-16T13:23:56Z</time>
      </trkpt>
      <trkpt lat="43.5321" lon="5.54758">
        <ele>362.3</ele>
        <time>2021-11-16T13:24:07Z</time>
      </trkpt>
      <trkpt lat="43.5321" lon="5.54758">
        <ele>371.1</ele>
        <time>2021-11-16T13:24:18Z</time>
      </trkpt>
      <trkpt lat="43.53209" lon="5.54758">
        <ele>369.6</ele>
        <time>2021-11-16T13:24:29Z</time>
      </trkpt>
      <trkpt lat="43.53209" lon="5.54758">
        <ele>355.9</ele>
        <time>2021-11-16T13:24:39Z</time>
      </trkpt>
      <trkpt lat="43.53206" lon="5.54748">
        <ele>356.3</ele>
        <time>2021-11-16T13:24:50Z</time>
      </trkpt>
      <trkpt lat="43.53203" lon="5.54737">
        <ele>376.5</ele>
        <time>2021-11-16T13:25:00Z</time>
      </trkpt>
      <trkpt lat="43.53199" lon="5.54723">
        <ele>363.1</ele>
        <time>2021-11-16T13:25:11Z</time>
      </trkpt>
      <trkpt lat="43.53195" lon="5.54715">
        <ele>367.8</ele>
        <time>2021-11-16T13:25:22Z</time>
      </trkpt>
      <trkpt lat="43.5319" lon="5.54706">
        <ele>385.5</ele>
        <time>2021-11-16T13:25:32Z</time>
      </trkpt>
      <trkpt lat="43.53188" lon="5.54696">
        <ele>379.8</ele>
        <time>2021-11-16T13:25:43Z</time>
      </trkpt>
      <trkpt lat="43.53189" lon="5.54698">
        <ele>384.6</ele>
        <time>2021-11-16T13:25:53Z</time>
      </trkpt>
      <trkpt lat="43.53189" lon="5.54696">
        <ele>388.7</ele>
        <time>2021-11-16T13:26:04Z</time>
      </trkpt>
      <trkpt lat="43.53189" lon="5.54697">
        <ele>375.7</ele>
        <time>2021-11-16T13:26:15Z</time>
      </trkpt>
      <trkpt lat="43.53189" lon="5.54697">
        <ele>382</ele>
        <time>2021-11-16T13:26:25Z</time>
      </trkpt>
      <trkpt lat="43.53189" lon="5.54697">
        <ele>375.1</ele>
        <time>2021-11-16T13:26:36Z</time>
      </trkpt>
      <trkpt lat="43.5319" lon="5.54696">
        <ele>370.3</ele>
        <time>2021-11-16T13:26:46Z</time>
      </trkpt>
      <trkpt lat="43.53189" lon="5.54696">
        <ele>376.6</ele>
        <time>2021-11-16T13:26:56Z</time>
      </trkpt>
      <trkpt lat="43.53188" lon="5.54694">
        <ele>358.3</ele>
        <time>2021-11-16T13:27:06Z</time>
      </trkpt>
      <trkpt lat="43.53188" lon="5.54694">
        <ele>388.4</ele>
        <time>2021-11-16T13:27:16Z</time>
      </trkpt>
      <trkpt lat="43.53189" lon="5.54685">
        <ele>363</ele>
        <time>2021-11-16T13:27:27Z</time>
      </trkpt>
      <trkpt lat="43.53191" lon="5.54683">
        <ele>361.1</ele>
        <time>2021-11-16T13:27:38Z</time>
      </trkpt>
      <trkpt lat="43.53187" lon="5.54673">
        <ele>363.3</ele>
        <time>2021-11-16T13:27:50Z</time>
      </trkpt>
      <trkpt lat="43.53188" lon="5.54658">
        <ele>398.6</ele>
        <time>2021-11-16T13:28:01Z</time>
      </trkpt>
      <trkpt lat="43.53187" lon="5.54645">
        <ele>382.6</ele>
        <time>2021-11-16T13:28:12Z</time>
      </trkpt>
      <trkpt lat="43.53187" lon="5.54634">
        <ele>368.9</ele>
        <time>2021-11-16T13:28:22Z</time>
      </trkpt>
      <trkpt lat="43.53185" lon="5.5462">
        <ele>364.2</ele>
        <time>2021-11-16T13:28:33Z</time>
      </trkpt>
      <trkpt lat="43.53184" lon="5.54609">
        <ele>375.2</ele>
        <time>2021-11-16T13:28:43Z</time>
      </trkpt>
      <trkpt lat="43.53183" lon="5.54609">
        <ele>366.4</ele>
        <time>2021-11-16T13:28:53Z</time>
      </trkpt>
      <trkpt lat="43.53184" lon="5.54602">
        <ele>396.4</ele>
        <time>2021-11-16T13:29:04Z</time>
      </trkpt>
      <trkpt lat="43.53182" lon="5.54592">
        <ele>389.4</ele>
        <time>2021-11-16T13:29:15Z</time>
      </trkpt>
      <trkpt lat="43.53182" lon="5.54592">
        <ele>381.3</ele>
        <time>2021-11-16T13:29:26Z</time>
      </trkpt>
      <trkpt lat="43.53183" lon="5.54592">
        <ele>381</ele>
        <time>2021-11-16T13:29:36Z</time>
      </trkpt>
      <trkpt lat="43.53182" lon="5.54582">
        <ele>392.8</ele>
        <time>2021-11-16T13:29:47Z</time>
      </trkpt>
      <trkpt lat="43.53181" lon="5.54569">
        <ele>381</ele>
        <time>2021-11-16T13:29:58Z</time>
      </trkpt>
      <trkpt lat="43.53181" lon="5.54555">
        <ele>398.9</ele>
        <time>2021-11-16T13:30:09Z</time>
      </trkpt>
      <trkpt lat="43.53181" lon="5.54542">
        <ele>390.3</ele>
        <time>2021-11-16T13:30:20Z</time>
      </trkpt>
      <trkpt lat="43.5318" lon="5.5453">
        <ele>381.2</ele>
        <time>2021-11-16T13:30:31Z</time>
      </trkpt>
      <trkpt lat="43.53177" lon="5.54526">
        <ele>405.3</ele>
        <time>2021-11-16T13:30:41Z</time>
      </trkpt>
      <trkpt lat="43.53174" lon="5.54522">
        <ele>394.6</ele>
        <time>2021-11-16T13:30:51Z</time>
      </trkpt>
      <trkpt lat="43.53169" lon="5.5452">
        <ele>382.3</ele>
        <time>2021-11-16T13:31:02Z</time>
      </trkpt>
      <trkpt lat="43.53162" lon="5.54511">
        <ele>396.9</ele>
        <time>2021-11-16T13:31:12Z</time>
      </trkpt>
      <trkpt lat="43.53157" lon="5.54504">
        <ele>388.9</ele>
        <time>2021-11-16T13:31:22Z</time>
      </trkpt>
      <trkpt lat="43.53157" lon="5.54504">
        <ele>400.7</ele>
        <time>2021-11-16T13:31:32Z</time>
      </trkpt>
      <trkpt lat="43.53156" lon="5.54503">
        <ele>400</ele>
        <time>2021-11-16T13:31:42Z</time>
      </trkpt>
      <trkpt lat="43.53156" lon="5.54503">
        <ele>399.3</ele>
        <time>2021-11-16T13:31:53Z</time>
      </trkpt>
      <trkpt lat="43.53156" lon="5.54502">
        <ele>397.7</ele>
        <time>2021-11-16T13:32:04Z</time>
      </trkpt>
      <trkpt lat="43.53156" lon="5.54502">
        <ele>411.7</ele>
        <time>2021-11-16T13:32:15Z</time>
      </trkpt>
      <trkpt lat="43.53156" lon="5.54502">
        <ele>383</ele>
        <time>2021-11-16T13:32:26Z</time>
      </trkpt>
      <trkpt lat="43.53156" lon="5.54502">
        <ele>396.6</ele>
        <time>2021-11-16T13:32:37Z</time>
      </trkpt>
      <trkpt lat="43.53156" lon="5.54502">
        <ele>385.5</ele>
        <time>2021-11-16T13:32:47Z</time>
      </trkpt>
      <trkpt lat="43.53156" lon="5.54502">
        <ele>403.5</ele>
        <time>2021-11-16T13:32:57Z</time>
      </trkpt>
      <trkpt lat="43.53156" lon="5.54502">
        <ele>400</ele>
        <time>2021-11-16T13:33:08Z</time>
      </trkpt>
      <trkpt lat="43.53157" lon="5.54503">
        <ele>396.3</ele>
        <time>2021-11-16T13:33:18Z</time>
      </trkpt>
      <trkpt lat="43.53157" lon="5.54503">
        <ele>402.6</ele>
        <time>2021-11-16T13:33:29Z</time>
      </trkpt>
      <trkpt lat="43.53149" lon="5.54494">
        <ele>395.5</ele>
        <time>2021-11-16T13:33:40Z</time>
      </trkpt>
      <trkpt lat="43.53146" lon="5.54486">
        <ele>384.2</ele>
        <time>2021-11-16T13:33:50Z</time>
      </trkpt>
      <trkpt lat="43.5314" lon="5.54479">
        <ele>394.2</ele>
        <time>2021-11-16T13:34:00Z</time>
      </trkpt>
      <trkpt lat="43.53138" lon="5.54479">
        <ele>407.9</ele>
        <time>2021-11-16T13:34:10Z</time>
      </trkpt>
      <trkpt lat="43.53138" lon="5.54479">
        <ele>401</ele>
        <time>2021-11-16T13:34:20Z</time>
      </trkpt>
      <trkpt lat="43.53138" lon="5.54479">
        <ele>408.3</ele>
        <time>2021-11-16T13:34:30Z</time>
      </trkpt>
      <trkpt lat="43.53135" lon="5.54471">
        <ele>396.9</ele>
        <time>2021-11-16T13:34:41Z</time>
      </trkpt>
      <trkpt lat="43.53132" lon="5.5446">
        <ele>381</ele>
        <time>2021-11-16T13:34:51Z</time>
      </trkpt>
      <trkpt lat="43.53129" lon="5.54452">
        <ele>393.3</ele>
        <time>2021-11-16T13:35:01Z</time>
      </trkpt>
      <trkpt lat="43.53127" lon="5.54439">
        <ele>394.2</ele>
        <time>2021-11-16T13:35:12Z</time>
      </trkpt>
      <trkpt lat="43.53127" lon="5.54429">
        <ele>405.8</ele>
        <time>2021-11-16T13:35:23Z</time>
      </trkpt>
      <trkpt lat="43.53128" lon="5.54417">
        <ele>388.8</ele>
        <time>2021-11-16T13:35:33Z</time>
      </trkpt>
      <trkpt lat="43.53134" lon="5.54408">
        <ele>401.8</ele>
        <time>2021-11-16T13:35:44Z</time>
      </trkpt>
      <trkpt lat="43.5314" lon="5.54399">
        <ele>425</ele>
        <time>2021-11-16T13:35:54Z</time>
      </trkpt>
      <trkpt lat="43.53147" lon="5.54389">
        <ele>389.6</ele>
        <time>2021-11-16T13:36:05Z</time>
      </trkpt>
      <trkpt lat="43.53152" lon="5.54379">
        <ele>395.9</ele>
        <time>2021-11-16T13:36:16Z</time>
      </trkpt>
      <trkpt lat="43.53158" lon="5.54371">
        <ele>396.3</ele>
        <time>2021-11-16T13:36:26Z</time>
      </trkpt>
      <trkpt lat="43.53165" lon="5.5436">
        <ele>401.2</ele>
        <time>2021-11-16T13:36:37Z</time>
      </trkpt>
      <trkpt lat="43.5317" lon="5.54351">
        <ele>410.4</ele>
        <time>2021-11-16T13:36:47Z</time>
      </trkpt>
      <trkpt lat="43.53175" lon="5.54345">
        <ele>415.5</ele>
        <time>2021-11-16T13:36:57Z</time>
      </trkpt>
      <trkpt lat="43.53178" lon="5.5434">
        <ele>406.8</ele>
        <time>2021-11-16T13:37:08Z</time>
      </trkpt>
      <trkpt lat="43.53183" lon="5.54332">
        <ele>395.9</ele>
        <time>2021-11-16T13:37:19Z</time>
      </trkpt>
      <trkpt lat="43.53189" lon="5.54321">
        <ele>394.6</ele>
        <time>2021-11-16T13:37:29Z</time>
      </trkpt>
      <trkpt lat="43.53194" lon="5.54309">
        <ele>404.1</ele>
        <time>2021-11-16T13:37:40Z</time>
      </trkpt>
      <trkpt lat="43.53199" lon="5.54301">
        <ele>398.2</ele>
        <time>2021-11-16T13:37:50Z</time>
      </trkpt>
      <trkpt lat="43.53206" lon="5.54294">
        <ele>415.6</ele>
        <time>2021-11-16T13:38:01Z</time>
      </trkpt>
      <trkpt lat="43.53211" lon="5.54287">
        <ele>413.3</ele>
        <time>2021-11-16T13:38:11Z</time>
      </trkpt>
      <trkpt lat="43.53217" lon="5.54276">
        <ele>402.1</ele>
        <time>2021-11-16T13:38:21Z</time>
      </trkpt>
      <trkpt lat="43.53224" lon="5.54268">
        <ele>423.2</ele>
        <time>2021-11-16T13:38:31Z</time>
      </trkpt>
      <trkpt lat="43.5323" lon="5.5426">
        <ele>413.8</ele>
        <time>2021-11-16T13:38:41Z</time>
      </trkpt>
      <trkpt lat="43.53237" lon="5.54255">
        <ele>408.1</ele>
        <time>2021-11-16T13:38:52Z</time>
      </trkpt>
      <trkpt lat="43.53246" lon="5.54254">
        <ele>402.3</ele>
        <time>2021-11-16T13:39:03Z</time>
      </trkpt>
      <trkpt lat="43.53255" lon="5.54249">
        <ele>393.4</ele>
        <time>2021-11-16T13:39:13Z</time>
      </trkpt>
      <trkpt lat="43.53263" lon="5.54244">
        <ele>401.8</ele>
        <time>2021-11-16T13:39:24Z</time>
      </trkpt>
      <trkpt lat="43.5327" lon="5.5424">
        <ele>404.7</ele>
        <time>2021-11-16T13:39:34Z</time>
      </trkpt>
      <trkpt lat="43.53276" lon="5.54239">
        <ele>413.3</ele>
        <time>2021-11-16T13:39:45Z</time>
      </trkpt>
      <trkpt lat="43.53283" lon="5.54237">
        <ele>412.7</ele>
        <time>2021-11-16T13:39:55Z</time>
      </trkpt>
      <trkpt lat="43.53292" lon="5.5423">
        <ele>407.6</ele>
        <time>2021-11-16T13:40:06Z</time>
      </trkpt>
      <trkpt lat="43.53299" lon="5.54224">
        <ele>419.6</ele>
        <time>2021-11-16T13:40:16Z</time>
      </trkpt>
      <trkpt lat="43.53304" lon="5.54216">
        <ele>421.8</ele>
        <time>2021-11-16T13:40:26Z</time>
      </trkpt>
      <trkpt lat="43.53307" lon="5.5421">
        <ele>397.1</ele>
        <time>2021-11-16T13:40:37Z</time>
      </trkpt>
      <trkpt lat="43.5332" lon="5.54206">
        <ele>411.6</ele>
        <time>2021-11-16T13:40:47Z</time>
      </trkpt>
      <trkpt lat="43.5333" lon="5.54207">
        <ele>416.1</ele>
        <time>2021-11-16T13:40:58Z</time>
      </trkpt>
      <trkpt lat="43.53337" lon="5.54205">
        <ele>417.9</ele>
        <time>2021-11-16T13:41:08Z</time>
      </trkpt>
      <trkpt lat="43.53347" lon="5.54198">
        <ele>423.9</ele>
        <time>2021-11-16T13:41:19Z</time>
      </trkpt>
      <trkpt lat="43.53353" lon="5.54191">
        <ele>403.9</ele>
        <time>2021-11-16T13:41:29Z</time>
      </trkpt>
      <trkpt lat="43.53357" lon="5.54185">
        <ele>417.9</ele>
        <time>2021-11-16T13:41:39Z</time>
      </trkpt>
      <trkpt lat="43.53353" lon="5.54172">
        <ele>419.9</ele>
        <time>2021-11-16T13:41:50Z</time>
      </trkpt>
      <trkpt lat="43.53355" lon="5.54172">
        <ele>423.6</ele>
        <time>2021-11-16T13:42:00Z</time>
      </trkpt>
      <trkpt lat="43.53355" lon="5.54172">
        <ele>395.5</ele>
        <time>2021-11-16T13:42:10Z</time>
      </trkpt>
      <trkpt lat="43.53357" lon="5.54172">
        <ele>414.7</ele>
        <time>2021-11-16T13:42:20Z</time>
      </trkpt>
      <trkpt lat="43.53357" lon="5.54172">
        <ele>431.5</ele>
        <time>2021-11-16T13:42:31Z</time>
      </trkpt>
      <trkpt lat="43.53357" lon="5.54172">
        <ele>418.9</ele>
        <time>2021-11-16T13:42:42Z</time>
      </trkpt>
      <trkpt lat="43.53359" lon="5.5417">
        <ele>424.1</ele>
        <time>2021-11-16T13:42:52Z</time>
      </trkpt>
      <trkpt lat="43.53359" lon="5.5417">
        <ele>415.4</ele>
        <time>2021-11-16T13:43:03Z</time>
      </trkpt>
      <trkpt lat="43.53354" lon="5.5416">
        <ele>400.4</ele>
        <time>2021-11-16T13:43:13Z</time>
      </trkpt>
      <trkpt lat="43.53349" lon="5.54151">
        <ele>440.2</ele>
        <time>2021-11-16T13:43:23Z</time>
      </trkpt>
      <trkpt lat="43.53348" lon="5.54137">
        <ele>419.4</ele>
        <time>2021-11-16T13:43:34Z</time>
      </trkpt>
      <trkpt lat="43.53347" lon="5.54127">
        <ele>412.1</ele>
        <time>2021-11-16T13:43:45Z</time>
      </trkpt>
      <trkpt lat="43.53351" lon="5.54117">
        <ele>420.1</ele>
        <time>2021-11-16T13:43:55Z</time>
      </trkpt>
      <trkpt lat="43.53358" lon="5.54107">
        <ele>417.9</ele>
        <time>2021-11-16T13:44:06Z</time>
      </trkpt>
      <trkpt lat="43.53365" lon="5.54098">
        <ele>420.1</ele>
        <time>2021-11-16T13:44:16Z</time>
      </trkpt>
      <trkpt lat="43.53373" lon="5.54094">
        <ele>432.8</ele>
        <time>2021-11-16T13:44:26Z</time>
      </trkpt>
      <trkpt lat="43.53383" lon="5.54092">
        <ele>435.1</ele>
        <time>2021-11-16T13:44:37Z</time>
      </trkpt>
      <trkpt lat="43.53392" lon="5.5409">
        <ele>420.1</ele>
        <time>2021-11-16T13:44:47Z</time>
      </trkpt>
      <trkpt lat="43.53401" lon="5.54088">
        <ele>416</ele>
        <time>2021-11-16T13:44:58Z</time>
      </trkpt>
      <trkpt lat="43.5341" lon="5.54083">
        <ele>424.7</ele>
        <time>2021-11-16T13:45:08Z</time>
      </trkpt>
      <trkpt lat="43.53421" lon="5.54079">
        <ele>422.2</ele>
        <time>2021-11-16T13:45:19Z</time>
      </trkpt>
      <trkpt lat="43.53428" lon="5.54072">
        <ele>432.4</ele>
        <time>2021-11-16T13:45:29Z</time>
      </trkpt>
      <trkpt lat="43.5343" lon="5.54067">
        <ele>438.3</ele>
        <time>2021-11-16T13:45:39Z</time>
      </trkpt>
      <trkpt lat="43.53428" lon="5.54068">
        <ele>420.5</ele>
        <time>2021-11-16T13:45:49Z</time>
      </trkpt>
      <trkpt lat="43.53428" lon="5.54068">
        <ele>438.3</ele>
        <time>2021-11-16T13:45:59Z</time>
      </trkpt>
      <trkpt lat="43.53428" lon="5.54068">
        <ele>426.5</ele>
        <time>2021-11-16T13:46:10Z</time>
      </trkpt>
      <trkpt lat="43.53429" lon="5.54067">
        <ele>432.3</ele>
        <time>2021-11-16T13:46:20Z</time>
      </trkpt>
      <trkpt lat="43.53436" lon="5.54057">
        <ele>447.9</ele>
        <time>2021-11-16T13:46:30Z</time>
      </trkpt>
      <trkpt lat="43.53442" lon="5.54044">
        <ele>411.6</ele>
        <time>2021-11-16T13:46:41Z</time>
      </trkpt>
      <trkpt lat="43.53444" lon="5.54029">
        <ele>440.6</ele>
        <time>2021-11-16T13:46:52Z</time>
      </trkpt>
      <trkpt lat="43.53447" lon="5.54013">
        <ele>419.4</ele>
        <time>2021-11-16T13:47:03Z</time>
      </trkpt>
      <trkpt lat="43.53453" lon="5.54006">
        <ele>436</ele>
        <time>2021-11-16T13:47:13Z</time>
      </trkpt>
      <trkpt lat="43.53461" lon="5.53997">
        <ele>417</ele>
        <time>2021-11-16T13:47:23Z</time>
      </trkpt>
      <trkpt lat="43.5347" lon="5.53992">
        <ele>447.2</ele>
        <time>2021-11-16T13:47:34Z</time>
      </trkpt>
      <trkpt lat="43.5348" lon="5.53996">
        <ele>432</ele>
        <time>2021-11-16T13:47:44Z</time>
      </trkpt>
      <trkpt lat="43.53483" lon="5.53999">
        <ele>428.5</ele>
        <time>2021-11-16T13:47:55Z</time>
      </trkpt>
      <trkpt lat="43.53483" lon="5.54">
        <ele>451.6</ele>
        <time>2021-11-16T13:48:06Z</time>
      </trkpt>
      <trkpt lat="43.53484" lon="5.54">
        <ele>448.3</ele>
        <time>2021-11-16T13:48:17Z</time>
      </trkpt>
      <trkpt lat="43.53478" lon="5.5399">
        <ele>449.6</ele>
        <time>2021-11-16T13:48:27Z</time>
      </trkpt>
      <trkpt lat="43.53482" lon="5.53977">
        <ele>456.4</ele>
        <time>2021-11-16T13:48:37Z</time>
      </trkpt>
      <trkpt lat="43.53485" lon="5.53967">
        <ele>418.4</ele>
        <time>2021-11-16T13:48:47Z</time>
      </trkpt>
      <trkpt lat="43.53486" lon="5.53955">
        <ele>422.7</ele>
        <time>2021-11-16T13:48:57Z</time>
      </trkpt>
      <trkpt lat="43.53487" lon="5.53943">
        <ele>452.2</ele>
        <time>2021-11-16T13:49:08Z</time>
      </trkpt>
      <trkpt lat="43.53487" lon="5.53929">
        <ele>414.6</ele>
        <time>2021-11-16T13:49:18Z</time>
      </trkpt>
      <trkpt lat="43.53488" lon="5.53928">
        <ele>447.2</ele>
        <time>2021-11-16T13:49:28Z</time>
      </trkpt>
      <trkpt lat="43.53488" lon="5.53928">
        <ele>430.9</ele>
        <time>2021-11-16T13:49:39Z</time>
      </trkpt>
      <trkpt lat="43.53488" lon="5.53928">
        <ele>433.7</ele>
        <time>2021-11-16T13:49:49Z</time>
      </trkpt>
      <trkpt lat="43.53488" lon="5.5392">
        <ele>423.7</ele>
        <time>2021-11-16T13:49:59Z</time>
      </trkpt>
      <trkpt lat="43.53486" lon="5.53906">
        <ele>429.8</ele>
        <time>2021-11-16T13:50:10Z</time>
      </trkpt>
      <trkpt lat="43.53485" lon="5.53891">
        <ele>442.1</ele>
        <time>2021-11-16T13:50:21Z</time>
      </trkpt>
      <trkpt lat="43.53484" lon="5.53878">
        <ele>448.4</ele>
        <time>2021-11-16T13:50:31Z</time>
      </trkpt>
      <trkpt lat="43.5349" lon="5.53866">
        <ele>436.8</ele>
        <time>2021-11-16T13:50:42Z</time>
      </trkpt>
      <trkpt lat="43.53496" lon="5.53856">
        <ele>427.4</ele>
        <time>2021-11-16T13:50:53Z</time>
      </trkpt>
      <trkpt lat="43.53501" lon="5.53846">
        <ele>422.5</ele>
        <time>2021-11-16T13:51:04Z</time>
      </trkpt>
      <trkpt lat="43.53502" lon="5.53844">
        <ele>436.3</ele>
        <time>2021-11-16T13:51:14Z</time>
      </trkpt>
      <trkpt lat="43.53502" lon="5.53844">
        <ele>413.4</ele>
        <time>2021-11-16T13:51:25Z</time>
      </trkpt>
      <trkpt lat="43.53501" lon="5.53844">
        <ele>432.5</ele>
        <time>2021-11-16T13:51:35Z</time>
      </trkpt>
      <trkpt lat="43.53501" lon="5.53844">
        <ele>411.8</ele>
        <time>2021-11-16T13:51:46Z</time>
      </trkpt>
      <trkpt lat="43.53501" lon="5.53844">
        <ele>439.8</ele>
        <time>2021-11-16T13:51:57Z</time>
      </trkpt>
      <trkpt lat="43.53501" lon="5.53844">
        <ele>433</ele>
        <time>2021-11-16T13:52:07Z</time>
      </trkpt>
      <trkpt lat="43.53501" lon="5.53844">
        <ele>424.4</ele>
        <time>2021-11-16T13:52:15Z</time>
      </trkpt>
      <trkpt lat="43.53501" lon="5.53844">
        <ele>422.8</ele>
        <time>2021-11-16T13:52:21Z</time>
      </trkpt>
      <trkpt lat="43.53501" lon="5.53844">
        <ele>429.6</ele>
        <time>2021-11-16T13:52:27Z</time>
      </trkpt>
      <trkpt lat="43.53501" lon="5.53844">
        <ele>427.2</ele>
        <time>2021-11-16T13:52:33Z</time>
      </trkpt>
      <trkpt lat="43.53503" lon="5.53844">
        <ele>426.3</ele>
        <time>2021-11-16T13:52:39Z</time>
      </trkpt>
      <trkpt lat="43.53503" lon="5.53844">
        <ele>426.2</ele>
        <time>2021-11-16T13:52:45Z</time>
      </trkpt>
      <trkpt lat="43.53504" lon="5.53843">
        <ele>421.9</ele>
        <time>2021-11-16T13:52:51Z</time>
      </trkpt>
      <trkpt lat="43.53506" lon="5.53844">
        <ele>434.5</ele>
        <time>2021-11-16T13:52:57Z</time>
      </trkpt>
      <trkpt lat="43.53505" lon="5.53844">
        <ele>430.6</ele>
        <time>2021-11-16T13:53:02Z</time>
      </trkpt>
      <trkpt lat="43.53505" lon="5.53844">
        <ele>428.2</ele>
        <time>2021-11-16T13:53:07Z</time>
      </trkpt>
      <trkpt lat="43.53505" lon="5.53844">
        <ele>412.7</ele>
        <time>2021-11-16T13:53:13Z</time>
      </trkpt>
      <trkpt lat="43.53505" lon="5.53844">
        <ele>422.9</ele>
        <time>2021-11-16T13:53:19Z</time>
      </trkpt>
      <trkpt lat="43.53505" lon="5.53844">
        <ele>432.1</ele>
        <time>2021-11-16T13:53:25Z</time>
      </trkpt>
      <trkpt lat="43.53505" lon="5.53844">
        <ele>407.1</ele>
        <time>2021-11-16T13:53:31Z</time>
      </trkpt>
      <trkpt lat="43.53502" lon="5.53843">
        <ele>414</ele>
        <time>2021-11-16T13:53:37Z</time>
      </trkpt>
      <trkpt lat="43.535" lon="5.53837">
        <ele>408.9</ele>
        <time>2021-11-16T13:53:43Z</time>
      </trkpt>
      <trkpt lat="43.53498" lon="5.53829">
        <ele>421.8</ele>
        <time>2021-11-16T13:53:49Z</time>
      </trkpt>
      <trkpt lat="43.53498" lon="5.53822">
        <ele>453.6</ele>
        <time>2021-11-16T13:53:55Z</time>
      </trkpt>
      <trkpt lat="43.53498" lon="5.53814">
        <ele>415.7</ele>
        <time>2021-11-16T13:54:01Z</time>
      </trkpt>
      <trkpt lat="43.53498" lon="5.53805">
        <ele>434.7</ele>
        <time>2021-11-16T13:54:06Z</time>
      </trkpt>
      <trkpt lat="43.53498" lon="5.53797">
        <ele>426.2</ele>
        <time>2021-11-16T13:54:11Z</time>
      </trkpt>
      <trkpt lat="43.53498" lon="5.53789">
        <ele>437.4</ele>
        <time>2021-11-16T13:54:17Z</time>
      </trkpt>
      <trkpt lat="43.53498" lon="5.53782">
        <ele>432.3</ele>
        <time>2021-11-16T13:54:22Z</time>
      </trkpt>
      <trkpt lat="43.53499" lon="5.53775">
        <ele>419.2</ele>
        <time>2021-11-16T13:54:28Z</time>
      </trkpt>
      <trkpt lat="43.53502" lon="5.53768">
        <ele>427</ele>
        <time>2021-11-16T13:54:33Z</time>
      </trkpt>
      <trkpt lat="43.53504" lon="5.53759">
        <ele>440.6</ele>
        <time>2021-11-16T13:54:39Z</time>
      </trkpt>
      <trkpt lat="43.53506" lon="5.53751">
        <ele>424.6</ele>
        <time>2021-11-16T13:54:45Z</time>
      </trkpt>
      <trkpt lat="43.53508" lon="5.53744">
        <ele>436.1</ele>
        <time>2021-11-16T13:54:50Z</time>
      </trkpt>
      <trkpt lat="43.5351" lon="5.5374">
        <ele>408.9</ele>
        <time>2021-11-16T13:54:55Z</time>
      </trkpt>
      <trkpt lat="43.53511" lon="5.53739">
        <ele>437.8</ele>
        <time>2021-11-16T13:55:00Z</time>
      </trkpt>
      <trkpt lat="43.53515" lon="5.53735">
        <ele>424.5</ele>
        <time>2021-11-16T13:55:06Z</time>
      </trkpt>
      <trkpt lat="43.5352" lon="5.53729">
        <ele>421.3</ele>
        <time>2021-11-16T13:55:12Z</time>
      </trkpt>
      <trkpt lat="43.53524" lon="5.53724">
        <ele>420.8</ele>
        <time>2021-11-16T13:55:18Z</time>
      </trkpt>
      <trkpt lat="43.53528" lon="5.53717">
        <ele>437.9</ele>
        <time>2021-11-16T13:55:23Z</time>
      </trkpt>
      <trkpt lat="43.53532" lon="5.5371">
        <ele>412.3</ele>
        <time>2021-11-16T13:55:29Z</time>
      </trkpt>
      <trkpt lat="43.53535" lon="5.53705">
        <ele>406</ele>
        <time>2021-11-16T13:55:34Z</time>
      </trkpt>
      <trkpt lat="43.53538" lon="5.53697">
        <ele>431</ele>
        <time>2021-11-16T13:55:40Z</time>
      </trkpt>
      <trkpt lat="43.53541" lon="5.5369">
        <ele>408.6</ele>
        <time>2021-11-16T13:55:46Z</time>
      </trkpt>
      <trkpt lat="43.53545" lon="5.53683">
        <ele>418.2</ele>
        <time>2021-11-16T13:55:51Z</time>
      </trkpt>
      <trkpt lat="43.53548" lon="5.53677">
        <ele>430.6</ele>
        <time>2021-11-16T13:55:56Z</time>
      </trkpt>
      <trkpt lat="43.53551" lon="5.53671">
        <ele>421.2</ele>
        <time>2021-11-16T13:56:02Z</time>
      </trkpt>
      <trkpt lat="43.53553" lon="5.53666">
        <ele>430.2</ele>
        <time>2021-11-16T13:56:07Z</time>
      </trkpt>
      <trkpt lat="43.53556" lon="5.53664">
        <ele>411.4</ele>
        <time>2021-11-16T13:56:13Z</time>
      </trkpt>
      <trkpt lat="43.53558" lon="5.53657">
        <ele>419.2</ele>
        <time>2021-11-16T13:56:18Z</time>
      </trkpt>
      <trkpt lat="43.53561" lon="5.5365">
        <ele>433.3</ele>
        <time>2021-11-16T13:56:23Z</time>
      </trkpt>
      <trkpt lat="43.53563" lon="5.53641">
        <ele>439.1</ele>
        <time>2021-11-16T13:56:29Z</time>
      </trkpt>
      <trkpt lat="43.53564" lon="5.53631">
        <ele>393.1</ele>
        <time>2021-11-16T13:56:35Z</time>
      </trkpt>
      <trkpt lat="43.53565" lon="5.53624">
        <ele>411.1</ele>
        <time>2021-11-16T13:56:40Z</time>
      </trkpt>
      <trkpt lat="43.53567" lon="5.53617">
        <ele>418.8</ele>
        <time>2021-11-16T13:56:45Z</time>
      </trkpt>
      <trkpt lat="43.53568" lon="5.53611">
        <ele>429.1</ele>
        <time>2021-11-16T13:56:51Z</time>
      </trkpt>
      <trkpt lat="43.53568" lon="5.5361">
        <ele>422.1</ele>
        <time>2021-11-16T13:56:56Z</time>
      </trkpt>
      <trkpt lat="43.53567" lon="5.53608">
        <ele>434.9</ele>
        <time>2021-11-16T13:57:01Z</time>
      </trkpt>
      <trkpt lat="43.53567" lon="5.53605">
        <ele>433.4</ele>
        <time>2021-11-16T13:57:07Z</time>
      </trkpt>
      <trkpt lat="43.53567" lon="5.53603">
        <ele>415.7</ele>
        <time>2021-11-16T13:57:12Z</time>
      </trkpt>
      <trkpt lat="43.53567" lon="5.53603">
        <ele>417.2</ele>
        <time>2021-11-16T13:57:18Z</time>
      </trkpt>
      <trkpt lat="43.53565" lon="5.53602">
        <ele>413.6</ele>
        <time>2021-11-16T13:57:24Z</time>
      </trkpt>
      <trkpt lat="43.53562" lon="5.53601">
        <ele>413.7</ele>
        <time>2021-11-16T13:57:30Z</time>
      </trkpt>
      <trkpt lat="43.53559" lon="5.53597">
        <ele>417.5</ele>
        <time>2021-11-16T13:57:35Z</time>
      </trkpt>
      <trkpt lat="43.53556" lon="5.53592">
        <ele>420.1</ele>
        <time>2021-11-16T13:57:40Z</time>
      </trkpt>
      <trkpt lat="43.53552" lon="5.53586">
        <ele>416.4</ele>
        <time>2021-11-16T13:57:46Z</time>
      </trkpt>
      <trkpt lat="43.53547" lon="5.53582">
        <ele>435.1</ele>
        <time>2021-11-16T13:57:51Z</time>
      </trkpt>
      <trkpt lat="43.53542" lon="5.53576">
        <ele>420.1</ele>
        <time>2021-11-16T13:57:57Z</time>
      </trkpt>
      <trkpt lat="43.53537" lon="5.53572">
        <ele>436.6</ele>
        <time>2021-11-16T13:58:03Z</time>
      </trkpt>
      <trkpt lat="43.53532" lon="5.53569">
        <ele>417.4</ele>
        <time>2021-11-16T13:58:09Z</time>
      </trkpt>
      <trkpt lat="43.53529" lon="5.53564">
        <ele>430.1</ele>
        <time>2021-11-16T13:58:14Z</time>
      </trkpt>
      <trkpt lat="43.53527" lon="5.53558">
        <ele>409.5</ele>
        <time>2021-11-16T13:58:20Z</time>
      </trkpt>
      <trkpt lat="43.53522" lon="5.53551">
        <ele>423.5</ele>
        <time>2021-11-16T13:58:26Z</time>
      </trkpt>
      <trkpt lat="43.53518" lon="5.53543">
        <ele>422.9</ele>
        <time>2021-11-16T13:58:32Z</time>
      </trkpt>
      <trkpt lat="43.53516" lon="5.53535">
        <ele>425.2</ele>
        <time>2021-11-16T13:58:37Z</time>
      </trkpt>
      <trkpt lat="43.53514" lon="5.53529">
        <ele>417.5</ele>
        <time>2021-11-16T13:58:42Z</time>
      </trkpt>
      <trkpt lat="43.53512" lon="5.53522">
        <ele>430.7</ele>
        <time>2021-11-16T13:58:48Z</time>
      </trkpt>
      <trkpt lat="43.53511" lon="5.53515">
        <ele>414.3</ele>
        <time>2021-11-16T13:58:53Z</time>
      </trkpt>
      <trkpt lat="43.53511" lon="5.53508">
        <ele>442.1</ele>
        <time>2021-11-16T13:58:58Z</time>
      </trkpt>
      <trkpt lat="43.5351" lon="5.535">
        <ele>414</ele>
        <time>2021-11-16T13:59:03Z</time>
      </trkpt>
      <trkpt lat="43.53509" lon="5.53491">
        <ele>408.9</ele>
        <time>2021-11-16T13:59:09Z</time>
      </trkpt>
      <trkpt lat="43.53509" lon="5.53482">
        <ele>412.6</ele>
        <time>2021-11-16T13:59:15Z</time>
      </trkpt>
      <trkpt lat="43.53509" lon="5.53472">
        <ele>429.6</ele>
        <time>2021-11-16T13:59:20Z</time>
      </trkpt>
      <trkpt lat="43.53508" lon="5.53462">
        <ele>413.2</ele>
        <time>2021-11-16T13:59:26Z</time>
      </trkpt>
      <trkpt lat="43.53507" lon="5.5346">
        <ele>411.5</ele>
        <time>2021-11-16T13:59:31Z</time>
      </trkpt>
      <trkpt lat="43.53508" lon="5.5346">
        <ele>421.5</ele>
        <time>2021-11-16T13:59:37Z</time>
      </trkpt>
      <trkpt lat="43.53508" lon="5.53456">
        <ele>426.5</ele>
        <time>2021-11-16T13:59:43Z</time>
      </trkpt>
      <trkpt lat="43.53507" lon="5.53449">
        <ele>416.8</ele>
        <time>2021-11-16T13:59:48Z</time>
      </trkpt>
      <trkpt lat="43.53507" lon="5.53441">
        <ele>423.4</ele>
        <time>2021-11-16T13:59:53Z</time>
      </trkpt>
      <trkpt lat="43.53505" lon="5.53433">
        <ele>430.9</ele>
        <time>2021-11-16T13:59:58Z</time>
      </trkpt>
      <trkpt lat="43.53504" lon="5.53425">
        <ele>428.2</ele>
        <time>2021-11-16T14:00:03Z</time>
      </trkpt>
      <trkpt lat="43.53502" lon="5.53417">
        <ele>431.6</ele>
        <time>2021-11-16T14:00:09Z</time>
      </trkpt>
      <trkpt lat="43.535" lon="5.5341">
        <ele>411.1</ele>
        <time>2021-11-16T14:00:14Z</time>
      </trkpt>
      <trkpt lat="43.53496" lon="5.53401">
        <ele>422.4</ele>
        <time>2021-11-16T14:00:20Z</time>
      </trkpt>
      <trkpt lat="43.53493" lon="5.53395">
        <ele>422</ele>
        <time>2021-11-16T14:00:25Z</time>
      </trkpt>
      <trkpt lat="43.53489" lon="5.53387">
        <ele>420.8</ele>
        <time>2021-11-16T14:00:31Z</time>
      </trkpt>
      <trkpt lat="43.53485" lon="5.53379">
        <ele>412.7</ele>
        <time>2021-11-16T14:00:37Z</time>
      </trkpt>
      <trkpt lat="43.5348" lon="5.53374">
        <ele>423.8</ele>
        <time>2021-11-16T14:00:42Z</time>
      </trkpt>
      <trkpt lat="43.53475" lon="5.53369">
        <ele>424.7</ele>
        <time>2021-11-16T14:00:48Z</time>
      </trkpt>
      <trkpt lat="43.53472" lon="5.53365">
        <ele>428.6</ele>
        <time>2021-11-16T14:00:53Z</time>
      </trkpt>
      <trkpt lat="43.53467" lon="5.53359">
        <ele>417.5</ele>
        <time>2021-11-16T14:00:59Z</time>
      </trkpt>
      <trkpt lat="43.53464" lon="5.53354">
        <ele>413.5</ele>
        <time>2021-11-16T14:01:05Z</time>
      </trkpt>
      <trkpt lat="43.5346" lon="5.5335">
        <ele>423</ele>
        <time>2021-11-16T14:01:11Z</time>
      </trkpt>
      <trkpt lat="43.53456" lon="5.53344">
        <ele>403.6</ele>
        <time>2021-11-16T14:01:16Z</time>
      </trkpt>
      <trkpt lat="43.53451" lon="5.53341">
        <ele>412.8</ele>
        <time>2021-11-16T14:01:22Z</time>
      </trkpt>
      <trkpt lat="43.53447" lon="5.53337">
        <ele>424.1</ele>
        <time>2021-11-16T14:01:27Z</time>
      </trkpt>
      <trkpt lat="43.53442" lon="5.53333">
        <ele>404.1</ele>
        <time>2021-11-16T14:01:32Z</time>
      </trkpt>
      <trkpt lat="43.53437" lon="5.53329">
        <ele>412</ele>
        <time>2021-11-16T14:01:37Z</time>
      </trkpt>
      <trkpt lat="43.53432" lon="5.53323">
        <ele>417.8</ele>
        <time>2021-11-16T14:01:43Z</time>
      </trkpt>
      <trkpt lat="43.53429" lon="5.53319">
        <ele>407.8</ele>
        <time>2021-11-16T14:01:48Z</time>
      </trkpt>
      <trkpt lat="43.53424" lon="5.53315">
        <ele>409.3</ele>
        <time>2021-11-16T14:01:54Z</time>
      </trkpt>
      <trkpt lat="43.53418" lon="5.53312">
        <ele>427</ele>
        <time>2021-11-16T14:02:00Z</time>
      </trkpt>
      <trkpt lat="43.53414" lon="5.53308">
        <ele>413.9</ele>
        <time>2021-11-16T14:02:05Z</time>
      </trkpt>
      <trkpt lat="43.5341" lon="5.53304">
        <ele>397.9</ele>
        <time>2021-11-16T14:02:10Z</time>
      </trkpt>
      <trkpt lat="43.53404" lon="5.53297">
        <ele>410.5</ele>
        <time>2021-11-16T14:02:16Z</time>
      </trkpt>
      <trkpt lat="43.53399" lon="5.53292">
        <ele>432.9</ele>
        <time>2021-11-16T14:02:21Z</time>
      </trkpt>
      <trkpt lat="43.53395" lon="5.53287">
        <ele>417.7</ele>
        <time>2021-11-16T14:02:26Z</time>
      </trkpt>
      <trkpt lat="43.53389" lon="5.53282">
        <ele>411.6</ele>
        <time>2021-11-16T14:02:32Z</time>
      </trkpt>
      <trkpt lat="43.53385" lon="5.5328">
        <ele>422.2</ele>
        <time>2021-11-16T14:02:37Z</time>
      </trkpt>
      <trkpt lat="43.5338" lon="5.53277">
        <ele>418.5</ele>
        <time>2021-11-16T14:02:43Z</time>
      </trkpt>
      <trkpt lat="43.53377" lon="5.53271">
        <ele>416.7</ele>
        <time>2021-11-16T14:02:49Z</time>
      </trkpt>
      <trkpt lat="43.53372" lon="5.53266">
        <ele>410.9</ele>
        <time>2021-11-16T14:02:54Z</time>
      </trkpt>
      <trkpt lat="43.53367" lon="5.53261">
        <ele>409.5</ele>
        <time>2021-11-16T14:03:00Z</time>
      </trkpt>
      <trkpt lat="43.53364" lon="5.53258">
        <ele>414.6</ele>
        <time>2021-11-16T14:03:05Z</time>
      </trkpt>
      <trkpt lat="43.5336" lon="5.53256">
        <ele>408.6</ele>
        <time>2021-11-16T14:03:10Z</time>
      </trkpt>
      <trkpt lat="43.5336" lon="5.53256">
        <ele>412.8</ele>
        <time>2021-11-16T14:03:15Z</time>
      </trkpt>
      <trkpt lat="43.5336" lon="5.53256">
        <ele>412.2</ele>
        <time>2021-11-16T14:03:21Z</time>
      </trkpt>
      <trkpt lat="43.5336" lon="5.53256">
        <ele>416.1</ele>
        <time>2021-11-16T14:03:27Z</time>
      </trkpt>
      <trkpt lat="43.5336" lon="5.53256">
        <ele>428</ele>
        <time>2021-11-16T14:03:32Z</time>
      </trkpt>
      <trkpt lat="43.53361" lon="5.53256">
        <ele>413.4</ele>
        <time>2021-11-16T14:03:37Z</time>
      </trkpt>
      <trkpt lat="43.53361" lon="5.53257">
        <ele>419.9</ele>
        <time>2021-11-16T14:03:43Z</time>
      </trkpt>
      <trkpt lat="43.53358" lon="5.53255">
        <ele>428.7</ele>
        <time>2021-11-16T14:03:49Z</time>
      </trkpt>
      <trkpt lat="43.53354" lon="5.53252">
        <ele>409.8</ele>
        <time>2021-11-16T14:03:55Z</time>
      </trkpt>
      <trkpt lat="43.53349" lon="5.53249">
        <ele>435.5</ele>
        <time>2021-11-16T14:04:00Z</time>
      </trkpt>
      <trkpt lat="43.53345" lon="5.53245">
        <ele>433.4</ele>
        <time>2021-11-16T14:04:05Z</time>
      </trkpt>
      <trkpt lat="43.53338" lon="5.53238">
        <ele>416.8</ele>
        <time>2021-11-16T14:04:11Z</time>
      </trkpt>
      <trkpt lat="43.53333" lon="5.53234">
        <ele>416.3</ele>
        <time>2021-11-16T14:04:16Z</time>
      </trkpt>
      <trkpt lat="43.53326" lon="5.53231">
        <ele>412.5</ele>
        <time>2021-11-16T14:04:22Z</time>
      </trkpt>
      <trkpt lat="43.5332" lon="5.53228">
        <ele>432.6</ele>
        <time>2021-11-16T14:04:27Z</time>
      </trkpt>
      <trkpt lat="43.53315" lon="5.53223">
        <ele>442.3</ele>
        <time>2021-11-16T14:04:32Z</time>
      </trkpt>
      <trkpt lat="43.5331" lon="5.5322">
        <ele>427.1</ele>
        <time>2021-11-16T14:04:38Z</time>
      </trkpt>
      <trkpt lat="43.53304" lon="5.53216">
        <ele>421.5</ele>
        <time>2021-11-16T14:04:44Z</time>
      </trkpt>
      <trkpt lat="43.53297" lon="5.53212">
        <ele>435.8</ele>
        <time>2021-11-16T14:04:50Z</time>
      </trkpt>
      <trkpt lat="43.53293" lon="5.53209">
        <ele>434.8</ele>
        <time>2021-11-16T14:04:55Z</time>
      </trkpt>
      <trkpt lat="43.53289" lon="5.53207">
        <ele>415</ele>
        <time>2021-11-16T14:05:01Z</time>
      </trkpt>
      <trkpt lat="43.53284" lon="5.53203">
        <ele>433.1</ele>
        <time>2021-11-16T14:05:07Z</time>
      </trkpt>
      <trkpt lat="43.5328" lon="5.53199">
        <ele>423.1</ele>
        <time>2021-11-16T14:05:12Z</time>
      </trkpt>
      <trkpt lat="43.53276" lon="5.53196">
        <ele>439</ele>
        <time>2021-11-16T14:05:17Z</time>
      </trkpt>
      <trkpt lat="43.53273" lon="5.53193">
        <ele>391.4</ele>
        <time>2021-11-16T14:05:23Z</time>
      </trkpt>
      <trkpt lat="43.53269" lon="5.53192">
        <ele>427.4</ele>
        <time>2021-11-16T14:05:28Z</time>
      </trkpt>
      <trkpt lat="43.53263" lon="5.5319">
        <ele>406.4</ele>
        <time>2021-11-16T14:05:34Z</time>
      </trkpt>
      <trkpt lat="43.53258" lon="5.53188">
        <ele>391.1</ele>
        <time>2021-11-16T14:05:40Z</time>
      </trkpt>
      <trkpt lat="43.53252" lon="5.53186">
        <ele>416.3</ele>
        <time>2021-11-16T14:05:46Z</time>
      </trkpt>
      <trkpt lat="43.53246" lon="5.53183">
        <ele>412.8</ele>
        <time>2021-11-16T14:05:52Z</time>
      </trkpt>
      <trkpt lat="43.5324" lon="5.5318">
        <ele>421.3</ele>
        <time>2021-11-16T14:05:58Z</time>
      </trkpt>
      <trkpt lat="43.53233" lon="5.53176">
        <ele>415.8</ele>
        <time>2021-11-16T14:06:04Z</time>
      </trkpt>
      <trkpt lat="43.53228" lon="5.53175">
        <ele>396.8</ele>
        <time>2021-11-16T14:06:09Z</time>
      </trkpt>
      <trkpt lat="43.53222" lon="5.5317">
        <ele>398.1</ele>
        <time>2021-11-16T14:06:15Z</time>
      </trkpt>
      <trkpt lat="43.53217" lon="5.53165">
        <ele>407.3</ele>
        <time>2021-11-16T14:06:20Z</time>
      </trkpt>
      <trkpt lat="43.53212" lon="5.53161">
        <ele>419.4</ele>
        <time>2021-11-16T14:06:26Z</time>
      </trkpt>
      <trkpt lat="43.53207" lon="5.53159">
        <ele>410</ele>
        <time>2021-11-16T14:06:31Z</time>
      </trkpt>
      <trkpt lat="43.53201" lon="5.53157">
        <ele>408.6</ele>
        <time>2021-11-16T14:06:37Z</time>
      </trkpt>
      <trkpt lat="43.53195" lon="5.53154">
        <ele>396.7</ele>
        <time>2021-11-16T14:06:43Z</time>
      </trkpt>
      <trkpt lat="43.53189" lon="5.5315">
        <ele>392.8</ele>
        <time>2021-11-16T14:06:49Z</time>
      </trkpt>
      <trkpt lat="43.53184" lon="5.53148">
        <ele>378</ele>
        <time>2021-11-16T14:06:55Z</time>
      </trkpt>
      <trkpt lat="43.53179" lon="5.53146">
        <ele>398.4</ele>
        <time>2021-11-16T14:07:00Z</time>
      </trkpt>
      <trkpt lat="43.53174" lon="5.5314">
        <ele>401.4</ele>
        <time>2021-11-16T14:07:06Z</time>
      </trkpt>
      <trkpt lat="43.53167" lon="5.53137">
        <ele>402.1</ele>
        <time>2021-11-16T14:07:12Z</time>
      </trkpt>
      <trkpt lat="43.53163" lon="5.53134">
        <ele>393.2</ele>
        <time>2021-11-16T14:07:17Z</time>
      </trkpt>
      <trkpt lat="43.53157" lon="5.53128">
        <ele>388.3</ele>
        <time>2021-11-16T14:07:23Z</time>
      </trkpt>
      <trkpt lat="43.53152" lon="5.53122">
        <ele>392.5</ele>
        <time>2021-11-16T14:07:29Z</time>
      </trkpt>
      <trkpt lat="43.53146" lon="5.53115">
        <ele>406.2</ele>
        <time>2021-11-16T14:07:35Z</time>
      </trkpt>
      <trkpt lat="43.53142" lon="5.53108">
        <ele>383.3</ele>
        <time>2021-11-16T14:07:41Z</time>
      </trkpt>
      <trkpt lat="43.53138" lon="5.53101">
        <ele>409.5</ele>
        <time>2021-11-16T14:07:46Z</time>
      </trkpt>
      <trkpt lat="43.53135" lon="5.53091">
        <ele>409.5</ele>
        <time>2021-11-16T14:07:52Z</time>
      </trkpt>
      <trkpt lat="43.53133" lon="5.53085">
        <ele>384.2</ele>
        <time>2021-11-16T14:07:57Z</time>
      </trkpt>
      <trkpt lat="43.53131" lon="5.53077">
        <ele>392.5</ele>
        <time>2021-11-16T14:08:03Z</time>
      </trkpt>
      <trkpt lat="43.53129" lon="5.53071">
        <ele>408.2</ele>
        <time>2021-11-16T14:08:08Z</time>
      </trkpt>
      <trkpt lat="43.53127" lon="5.53063">
        <ele>404.8</ele>
        <time>2021-11-16T14:08:14Z</time>
      </trkpt>
      <trkpt lat="43.53125" lon="5.53055">
        <ele>405.3</ele>
        <time>2021-11-16T14:08:20Z</time>
      </trkpt>
      <trkpt lat="43.53124" lon="5.53048">
        <ele>411.5</ele>
        <time>2021-11-16T14:08:26Z</time>
      </trkpt>
      <trkpt lat="43.53122" lon="5.53041">
        <ele>406.5</ele>
        <time>2021-11-16T14:08:32Z</time>
      </trkpt>
      <trkpt lat="43.5312" lon="5.53034">
        <ele>404.3</ele>
        <time>2021-11-16T14:08:37Z</time>
      </trkpt>
      <trkpt lat="43.53119" lon="5.53028">
        <ele>393.6</ele>
        <time>2021-11-16T14:08:43Z</time>
      </trkpt>
      <trkpt lat="43.53117" lon="5.53022">
        <ele>410.4</ele>
        <time>2021-11-16T14:08:48Z</time>
      </trkpt>
      <trkpt lat="43.53116" lon="5.53015">
        <ele>408.2</ele>
        <time>2021-11-16T14:08:54Z</time>
      </trkpt>
      <trkpt lat="43.53113" lon="5.5301">
        <ele>395.7</ele>
        <time>2021-11-16T14:09:00Z</time>
      </trkpt>
      <trkpt lat="43.53111" lon="5.53006">
        <ele>408.2</ele>
        <time>2021-11-16T14:09:05Z</time>
      </trkpt>
      <trkpt lat="43.53111" lon="5.53007">
        <ele>406.8</ele>
        <time>2021-11-16T14:09:11Z</time>
      </trkpt>
      <trkpt lat="43.53111" lon="5.53007">
        <ele>405.9</ele>
        <time>2021-11-16T14:09:17Z</time>
      </trkpt>
      <trkpt lat="43.53111" lon="5.53007">
        <ele>412.3</ele>
        <time>2021-11-16T14:09:23Z</time>
      </trkpt>
      <trkpt lat="43.53111" lon="5.53006">
        <ele>416.2</ele>
        <time>2021-11-16T14:09:28Z</time>
      </trkpt>
      <trkpt lat="43.53109" lon="5.52999">
        <ele>411.9</ele>
        <time>2021-11-16T14:09:33Z</time>
      </trkpt>
      <trkpt lat="43.53106" lon="5.52993">
        <ele>407.1</ele>
        <time>2021-11-16T14:09:39Z</time>
      </trkpt>
      <trkpt lat="43.53104" lon="5.52987">
        <ele>417</ele>
        <time>2021-11-16T14:09:45Z</time>
      </trkpt>
      <trkpt lat="43.53101" lon="5.52981">
        <ele>402.8</ele>
        <time>2021-11-16T14:09:51Z</time>
      </trkpt>
      <trkpt lat="43.53097" lon="5.52976">
        <ele>387.9</ele>
        <time>2021-11-16T14:09:56Z</time>
      </trkpt>
      <trkpt lat="43.53093" lon="5.5297">
        <ele>410.5</ele>
        <time>2021-11-16T14:10:02Z</time>
      </trkpt>
      <trkpt lat="43.5309" lon="5.52965">
        <ele>424.9</ele>
        <time>2021-11-16T14:10:07Z</time>
      </trkpt>
      <trkpt lat="43.53088" lon="5.52957">
        <ele>415.2</ele>
        <time>2021-11-16T14:10:13Z</time>
      </trkpt>
      <trkpt lat="43.53084" lon="5.5295">
        <ele>417.2</ele>
        <time>2021-11-16T14:10:19Z</time>
      </trkpt>
      <trkpt lat="43.53082" lon="5.52944">
        <ele>409</ele>
        <time>2021-11-16T14:10:24Z</time>
      </trkpt>
      <trkpt lat="43.53079" lon="5.52938">
        <ele>378.8</ele>
        <time>2021-11-16T14:10:30Z</time>
      </trkpt>
      <trkpt lat="43.53078" lon="5.52937">
        <ele>413.9</ele>
        <time>2021-11-16T14:10:36Z</time>
      </trkpt>
      <trkpt lat="43.53078" lon="5.52937">
        <ele>427.4</ele>
        <time>2021-11-16T14:10:41Z</time>
      </trkpt>
      <trkpt lat="43.53078" lon="5.52937">
        <ele>418.3</ele>
        <time>2021-11-16T14:10:47Z</time>
      </trkpt>
      <trkpt lat="43.53078" lon="5.52937">
        <ele>424.2</ele>
        <time>2021-11-16T14:10:52Z</time>
      </trkpt>
      <trkpt lat="43.53079" lon="5.52937">
        <ele>419.5</ele>
        <time>2021-11-16T14:10:57Z</time>
      </trkpt>
      <trkpt lat="43.53079" lon="5.52937">
        <ele>414.6</ele>
        <time>2021-11-16T14:11:02Z</time>
      </trkpt>
      <trkpt lat="43.53079" lon="5.52937">
        <ele>407.1</ele>
        <time>2021-11-16T14:11:08Z</time>
      </trkpt>
      <trkpt lat="43.53075" lon="5.5293">
        <ele>445.3</ele>
        <time>2021-11-16T14:11:13Z</time>
      </trkpt>
      <trkpt lat="43.53071" lon="5.52923">
        <ele>399.5</ele>
        <time>2021-11-16T14:11:19Z</time>
      </trkpt>
      <trkpt lat="43.53069" lon="5.52917">
        <ele>428.1</ele>
        <time>2021-11-16T14:11:24Z</time>
      </trkpt>
      <trkpt lat="43.53066" lon="5.5291">
        <ele>405.6</ele>
        <time>2021-11-16T14:11:30Z</time>
      </trkpt>
      <trkpt lat="43.53063" lon="5.52904">
        <ele>432.8</ele>
        <time>2021-11-16T14:11:35Z</time>
      </trkpt>
      <trkpt lat="43.53059" lon="5.52897">
        <ele>411.3</ele>
        <time>2021-11-16T14:11:41Z</time>
      </trkpt>
      <trkpt lat="43.53055" lon="5.52892">
        <ele>412.2</ele>
        <time>2021-11-16T14:11:46Z</time>
      </trkpt>
      <trkpt lat="43.53052" lon="5.52884">
        <ele>403.8</ele>
        <time>2021-11-16T14:11:52Z</time>
      </trkpt>
      <trkpt lat="43.53048" lon="5.52879">
        <ele>420.2</ele>
        <time>2021-11-16T14:11:57Z</time>
      </trkpt>
      <trkpt lat="43.53043" lon="5.52872">
        <ele>407.4</ele>
        <time>2021-11-16T14:12:03Z</time>
      </trkpt>
      <trkpt lat="43.53039" lon="5.52867">
        <ele>420.9</ele>
        <time>2021-11-16T14:12:08Z</time>
      </trkpt>
      <trkpt lat="43.53034" lon="5.52864">
        <ele>409.5</ele>
        <time>2021-11-16T14:12:14Z</time>
      </trkpt>
      <trkpt lat="43.5303" lon="5.52861">
        <ele>409</ele>
        <time>2021-11-16T14:12:19Z</time>
      </trkpt>
      <trkpt lat="43.53022" lon="5.52857">
        <ele>407.9</ele>
        <time>2021-11-16T14:12:25Z</time>
      </trkpt>
      <trkpt lat="43.53017" lon="5.52854">
        <ele>419.7</ele>
        <time>2021-11-16T14:12:30Z</time>
      </trkpt>
      <trkpt lat="43.5301" lon="5.52851">
        <ele>408.8</ele>
        <time>2021-11-16T14:12:36Z</time>
      </trkpt>
      <trkpt lat="43.53003" lon="5.5285">
        <ele>414.9</ele>
        <time>2021-11-16T14:12:42Z</time>
      </trkpt>
      <trkpt lat="43.52997" lon="5.52848">
        <ele>418.6</ele>
        <time>2021-11-16T14:12:48Z</time>
      </trkpt>
      <trkpt lat="43.52991" lon="5.52847">
        <ele>403.1</ele>
        <time>2021-11-16T14:12:54Z</time>
      </trkpt>
      <trkpt lat="43.52985" lon="5.52846">
        <ele>405.2</ele>
        <time>2021-11-16T14:13:00Z</time>
      </trkpt>
      <trkpt lat="43.52979" lon="5.52845">
        <ele>416.3</ele>
        <time>2021-11-16T14:13:05Z</time>
      </trkpt>
      <trkpt lat="43.52972" lon="5.52845">
        <ele>406</ele>
        <time>2021-11-16T14:13:11Z</time>
      </trkpt>
      <trkpt lat="43.52965" lon="5.52845">
        <ele>405.7</ele>
        <time>2021-11-16T14:13:17Z</time>
      </trkpt>
      <trkpt lat="43.5296" lon="5.52847">
        <ele>408.9</ele>
        <time>2021-11-16T14:13:22Z</time>
      </trkpt>
      <trkpt lat="43.52953" lon="5.52849">
        <ele>415</ele>
        <time>2021-11-16T14:13:28Z</time>
      </trkpt>
      <trkpt lat="43.52947" lon="5.52852">
        <ele>416</ele>
        <time>2021-11-16T14:13:34Z</time>
      </trkpt>
      <trkpt lat="43.52943" lon="5.52855">
        <ele>410.8</ele>
        <time>2021-11-16T14:13:39Z</time>
      </trkpt>
      <trkpt lat="43.52938" lon="5.52858">
        <ele>418.2</ele>
        <time>2021-11-16T14:13:44Z</time>
      </trkpt>
      <trkpt lat="43.52934" lon="5.52862">
        <ele>414.2</ele>
        <time>2021-11-16T14:13:50Z</time>
      </trkpt>
      <trkpt lat="43.52929" lon="5.52867">
        <ele>413.3</ele>
        <time>2021-11-16T14:13:55Z</time>
      </trkpt>
      <trkpt lat="43.52925" lon="5.52871">
        <ele>416.4</ele>
        <time>2021-11-16T14:14:01Z</time>
      </trkpt>
      <trkpt lat="43.52922" lon="5.52878">
        <ele>405.2</ele>
        <time>2021-11-16T14:14:07Z</time>
      </trkpt>
      <trkpt lat="43.52919" lon="5.52885">
        <ele>415.2</ele>
        <time>2021-11-16T14:14:12Z</time>
      </trkpt>
      <trkpt lat="43.52916" lon="5.52894">
        <ele>407.2</ele>
        <time>2021-11-16T14:14:18Z</time>
      </trkpt>
      <trkpt lat="43.52913" lon="5.52901">
        <ele>422.9</ele>
        <time>2021-11-16T14:14:23Z</time>
      </trkpt>
      <trkpt lat="43.52908" lon="5.52908">
        <ele>413.4</ele>
        <time>2021-11-16T14:14:29Z</time>
      </trkpt>
      <trkpt lat="43.52904" lon="5.52914">
        <ele>394.2</ele>
        <time>2021-11-16T14:14:34Z</time>
      </trkpt>
      <trkpt lat="43.529" lon="5.5292">
        <ele>408.4</ele>
        <time>2021-11-16T14:14:40Z</time>
      </trkpt>
      <trkpt lat="43.52897" lon="5.52927">
        <ele>423.1</ele>
        <time>2021-11-16T14:14:45Z</time>
      </trkpt>
      <trkpt lat="43.52893" lon="5.52935">
        <ele>415.7</ele>
        <time>2021-11-16T14:14:51Z</time>
      </trkpt>
      <trkpt lat="43.52889" lon="5.52942">
        <ele>405.9</ele>
        <time>2021-11-16T14:14:56Z</time>
      </trkpt>
      <trkpt lat="43.52884" lon="5.52949">
        <ele>405.7</ele>
        <time>2021-11-16T14:15:02Z</time>
      </trkpt>
      <trkpt lat="43.5288" lon="5.52954">
        <ele>402.8</ele>
        <time>2021-11-16T14:15:07Z</time>
      </trkpt>
      <trkpt lat="43.52874" lon="5.5296">
        <ele>411.9</ele>
        <time>2021-11-16T14:15:13Z</time>
      </trkpt>
      <trkpt lat="43.52871" lon="5.52966">
        <ele>396.3</ele>
        <time>2021-11-16T14:15:18Z</time>
      </trkpt>
      <trkpt lat="43.52865" lon="5.52974">
        <ele>416.2</ele>
        <time>2021-11-16T14:15:24Z</time>
      </trkpt>
      <trkpt lat="43.52862" lon="5.5298">
        <ele>422</ele>
        <time>2021-11-16T14:15:29Z</time>
      </trkpt>
      <trkpt lat="43.52858" lon="5.52988">
        <ele>401.9</ele>
        <time>2021-11-16T14:15:35Z</time>
      </trkpt>
      <trkpt lat="43.52854" lon="5.52995">
        <ele>420.5</ele>
        <time>2021-11-16T14:15:41Z</time>
      </trkpt>
      <trkpt lat="43.52851" lon="5.53004">
        <ele>418.8</ele>
        <time>2021-11-16T14:15:47Z</time>
      </trkpt>
      <trkpt lat="43.52849" lon="5.53012">
        <ele>414.7</ele>
        <time>2021-11-16T14:15:52Z</time>
      </trkpt>
      <trkpt lat="43.52847" lon="5.53018">
        <ele>422.4</ele>
        <time>2021-11-16T14:15:58Z</time>
      </trkpt>
      <trkpt lat="43.52847" lon="5.53024">
        <ele>423.4</ele>
        <time>2021-11-16T14:16:03Z</time>
      </trkpt>
      <trkpt lat="43.52845" lon="5.53035">
        <ele>417.4</ele>
        <time>2021-11-16T14:16:09Z</time>
      </trkpt>
      <trkpt lat="43.52844" lon="5.53043">
        <ele>419</ele>
        <time>2021-11-16T14:16:14Z</time>
      </trkpt>
      <trkpt lat="43.52842" lon="5.53052">
        <ele>417.1</ele>
        <time>2021-11-16T14:16:20Z</time>
      </trkpt>
      <trkpt lat="43.52841" lon="5.53059">
        <ele>402.9</ele>
        <time>2021-11-16T14:16:25Z</time>
      </trkpt>
      <trkpt lat="43.5284" lon="5.53068">
        <ele>428.7</ele>
        <time>2021-11-16T14:16:31Z</time>
      </trkpt>
      <trkpt lat="43.52839" lon="5.53076">
        <ele>414.9</ele>
        <time>2021-11-16T14:16:36Z</time>
      </trkpt>
      <trkpt lat="43.52837" lon="5.53086">
        <ele>396.4</ele>
        <time>2021-11-16T14:16:42Z</time>
      </trkpt>
      <trkpt lat="43.52834" lon="5.53093">
        <ele>407.3</ele>
        <time>2021-11-16T14:16:47Z</time>
      </trkpt>
      <trkpt lat="43.52831" lon="5.53102">
        <ele>405.3</ele>
        <time>2021-11-16T14:16:53Z</time>
      </trkpt>
      <trkpt lat="43.52828" lon="5.53109">
        <ele>410.3</ele>
        <time>2021-11-16T14:16:58Z</time>
      </trkpt>
      <trkpt lat="43.52825" lon="5.53118">
        <ele>410.9</ele>
        <time>2021-11-16T14:17:04Z</time>
      </trkpt>
      <trkpt lat="43.52823" lon="5.53125">
        <ele>416.1</ele>
        <time>2021-11-16T14:17:09Z</time>
      </trkpt>
      <trkpt lat="43.5282" lon="5.53133">
        <ele>406.8</ele>
        <time>2021-11-16T14:17:15Z</time>
      </trkpt>
      <trkpt lat="43.52817" lon="5.53141">
        <ele>437.1</ele>
        <time>2021-11-16T14:17:21Z</time>
      </trkpt>
      <trkpt lat="43.52815" lon="5.53148">
        <ele>413.9</ele>
        <time>2021-11-16T14:17:26Z</time>
      </trkpt>
      <trkpt lat="43.52811" lon="5.53158">
        <ele>407.3</ele>
        <time>2021-11-16T14:17:32Z</time>
      </trkpt>
      <trkpt lat="43.52808" lon="5.53165">
        <ele>413.2</ele>
        <time>2021-11-16T14:17:38Z</time>
      </trkpt>
      <trkpt lat="43.52805" lon="5.53174">
        <ele>420.1</ele>
        <time>2021-11-16T14:17:44Z</time>
      </trkpt>
      <trkpt lat="43.52801" lon="5.53182">
        <ele>421.2</ele>
        <time>2021-11-16T14:17:50Z</time>
      </trkpt>
      <trkpt lat="43.52796" lon="5.53187">
        <ele>414.5</ele>
        <time>2021-11-16T14:17:55Z</time>
      </trkpt>
      <trkpt lat="43.5279" lon="5.53191">
        <ele>417.8</ele>
        <time>2021-11-16T14:18:01Z</time>
      </trkpt>
      <trkpt lat="43.52785" lon="5.53195">
        <ele>406.7</ele>
        <time>2021-11-16T14:18:06Z</time>
      </trkpt>
      <trkpt lat="43.52779" lon="5.53198">
        <ele>413.1</ele>
        <time>2021-11-16T14:18:12Z</time>
      </trkpt>
      <trkpt lat="43.52773" lon="5.53199">
        <ele>421</ele>
        <time>2021-11-16T14:18:17Z</time>
      </trkpt>
      <trkpt lat="43.52767" lon="5.53201">
        <ele>416.1</ele>
        <time>2021-11-16T14:18:23Z</time>
      </trkpt>
      <trkpt lat="43.52762" lon="5.53204">
        <ele>400.1</ele>
        <time>2021-11-16T14:18:28Z</time>
      </trkpt>
      <trkpt lat="43.52755" lon="5.53206">
        <ele>412</ele>
        <time>2021-11-16T14:18:34Z</time>
      </trkpt>
      <trkpt lat="43.52751" lon="5.53204">
        <ele>411.3</ele>
        <time>2021-11-16T14:18:39Z</time>
      </trkpt>
      <trkpt lat="43.52751" lon="5.53204">
        <ele>403.6</ele>
        <time>2021-11-16T14:18:45Z</time>
      </trkpt>
      <trkpt lat="43.52751" lon="5.53204">
        <ele>405.1</ele>
        <time>2021-11-16T14:18:51Z</time>
      </trkpt>
      <trkpt lat="43.52749" lon="5.53206">
        <ele>404.7</ele>
        <time>2021-11-16T14:18:56Z</time>
      </trkpt>
      <trkpt lat="43.52744" lon="5.53209">
        <ele>385.8</ele>
        <time>2021-11-16T14:19:01Z</time>
      </trkpt>
      <trkpt lat="43.52739" lon="5.53211">
        <ele>411.8</ele>
        <time>2021-11-16T14:19:07Z</time>
      </trkpt>
      <trkpt lat="43.52731" lon="5.53217">
        <ele>405</ele>
        <time>2021-11-16T14:19:13Z</time>
      </trkpt>
      <trkpt lat="43.52727" lon="5.53221">
        <ele>407.6</ele>
        <time>2021-11-16T14:19:19Z</time>
      </trkpt>
      <trkpt lat="43.5273" lon="5.5322">
        <ele>403.4</ele>
        <time>2021-11-16T14:19:24Z</time>
      </trkpt>
      <trkpt lat="43.52729" lon="5.5322">
        <ele>403.3</ele>
        <time>2021-11-16T14:19:30Z</time>
      </trkpt>
      <trkpt lat="43.52727" lon="5.5322">
        <ele>415.9</ele>
        <time>2021-11-16T14:19:35Z</time>
      </trkpt>
      <trkpt lat="43.52727" lon="5.5322">
        <ele>415</ele>
        <time>2021-11-16T14:19:40Z</time>
      </trkpt>
      <trkpt lat="43.52725" lon="5.53221">
        <ele>429.7</ele>
        <time>2021-11-16T14:19:45Z</time>
      </trkpt>
      <trkpt lat="43.5272" lon="5.53224">
        <ele>399.9</ele>
        <time>2021-11-16T14:19:51Z</time>
      </trkpt>
      <trkpt lat="43.52716" lon="5.5323">
        <ele>412.8</ele>
        <time>2021-11-16T14:19:57Z</time>
      </trkpt>
      <trkpt lat="43.52711" lon="5.53235">
        <ele>397.6</ele>
        <time>2021-11-16T14:20:03Z</time>
      </trkpt>
      <trkpt lat="43.52707" lon="5.53243">
        <ele>389.9</ele>
        <time>2021-11-16T14:20:09Z</time>
      </trkpt>
      <trkpt lat="43.52705" lon="5.5325">
        <ele>404.4</ele>
        <time>2021-11-16T14:20:14Z</time>
      </trkpt>
      <trkpt lat="43.52704" lon="5.53257">
        <ele>427.3</ele>
        <time>2021-11-16T14:20:19Z</time>
      </trkpt>
      <trkpt lat="43.52704" lon="5.53264">
        <ele>409.8</ele>
        <time>2021-11-16T14:20:25Z</time>
      </trkpt>
      <trkpt lat="43.52703" lon="5.53271">
        <ele>412</ele>
        <time>2021-11-16T14:20:30Z</time>
      </trkpt>
      <trkpt lat="43.52702" lon="5.53279">
        <ele>410.5</ele>
        <time>2021-11-16T14:20:35Z</time>
      </trkpt>
      <trkpt lat="43.52701" lon="5.53286">
        <ele>413.4</ele>
        <time>2021-11-16T14:20:40Z</time>
      </trkpt>
      <trkpt lat="43.527" lon="5.53292">
        <ele>410</ele>
        <time>2021-11-16T14:20:45Z</time>
      </trkpt>
      <trkpt lat="43.52698" lon="5.53301">
        <ele>410.1</ele>
        <time>2021-11-16T14:20:51Z</time>
      </trkpt>
      <trkpt lat="43.52698" lon="5.5331">
        <ele>404.1</ele>
        <time>2021-11-16T14:20:57Z</time>
      </trkpt>
      <trkpt lat="43.52696" lon="5.53316">
        <ele>416.1</ele>
        <time>2021-11-16T14:21:02Z</time>
      </trkpt>
      <trkpt lat="43.52695" lon="5.53322">
        <ele>398.5</ele>
        <time>2021-11-16T14:21:07Z</time>
      </trkpt>
      <trkpt lat="43.52692" lon="5.53328">
        <ele>397.7</ele>
        <time>2021-11-16T14:21:13Z</time>
      </trkpt>
      <trkpt lat="43.52691" lon="5.53337">
        <ele>402.2</ele>
        <time>2021-11-16T14:21:19Z</time>
      </trkpt>
      <trkpt lat="43.52691" lon="5.53346">
        <ele>387.2</ele>
        <time>2021-11-16T14:21:25Z</time>
      </trkpt>
      <trkpt lat="43.52691" lon="5.53355">
        <ele>405.1</ele>
        <time>2021-11-16T14:21:30Z</time>
      </trkpt>
      <trkpt lat="43.5269" lon="5.53364">
        <ele>406.6</ele>
        <time>2021-11-16T14:21:36Z</time>
      </trkpt>
      <trkpt lat="43.5269" lon="5.53371">
        <ele>399.9</ele>
        <time>2021-11-16T14:21:41Z</time>
      </trkpt>
      <trkpt lat="43.5269" lon="5.53379">
        <ele>400.3</ele>
        <time>2021-11-16T14:21:46Z</time>
      </trkpt>
      <trkpt lat="43.5269" lon="5.53389">
        <ele>396.1</ele>
        <time>2021-11-16T14:21:52Z</time>
      </trkpt>
      <trkpt lat="43.5269" lon="5.53397">
        <ele>405.4</ele>
        <time>2021-11-16T14:21:57Z</time>
      </trkpt>
      <trkpt lat="43.52692" lon="5.53407">
        <ele>411.1</ele>
        <time>2021-11-16T14:22:03Z</time>
      </trkpt>
      <trkpt lat="43.52693" lon="5.53415">
        <ele>413.9</ele>
        <time>2021-11-16T14:22:09Z</time>
      </trkpt>
      <trkpt lat="43.52692" lon="5.53422">
        <ele>402.2</ele>
        <time>2021-11-16T14:22:15Z</time>
      </trkpt>
      <trkpt lat="43.52692" lon="5.53428">
        <ele>402.4</ele>
        <time>2021-11-16T14:22:21Z</time>
      </trkpt>
      <trkpt lat="43.52692" lon="5.53436">
        <ele>399.9</ele>
        <time>2021-11-16T14:22:27Z</time>
      </trkpt>
      <trkpt lat="43.52693" lon="5.53445">
        <ele>392.4</ele>
        <time>2021-11-16T14:22:32Z</time>
      </trkpt>
      <trkpt lat="43.52693" lon="5.53452">
        <ele>401.5</ele>
        <time>2021-11-16T14:22:37Z</time>
      </trkpt>
      <trkpt lat="43.52694" lon="5.53461">
        <ele>392.3</ele>
        <time>2021-11-16T14:22:43Z</time>
      </trkpt>
      <trkpt lat="43.52696" lon="5.53468">
        <ele>396.8</ele>
        <time>2021-11-16T14:22:48Z</time>
      </trkpt>
      <trkpt lat="43.52695" lon="5.53476">
        <ele>401.2</ele>
        <time>2021-11-16T14:22:54Z</time>
      </trkpt>
      <trkpt lat="43.52694" lon="5.53483">
        <ele>389.8</ele>
        <time>2021-11-16T14:22:59Z</time>
      </trkpt>
      <trkpt lat="43.52695" lon="5.53491">
        <ele>388.4</ele>
        <time>2021-11-16T14:23:05Z</time>
      </trkpt>
      <trkpt lat="43.52696" lon="5.53497">
        <ele>390.1</ele>
        <time>2021-11-16T14:23:10Z</time>
      </trkpt>
      <trkpt lat="43.52697" lon="5.53505">
        <ele>381.2</ele>
        <time>2021-11-16T14:23:15Z</time>
      </trkpt>
      <trkpt lat="43.52696" lon="5.53513">
        <ele>395.8</ele>
        <time>2021-11-16T14:23:21Z</time>
      </trkpt>
      <trkpt lat="43.52695" lon="5.53519">
        <ele>387.5</ele>
        <time>2021-11-16T14:23:27Z</time>
      </trkpt>
      <trkpt lat="43.52695" lon="5.53526">
        <ele>397.2</ele>
        <time>2021-11-16T14:23:32Z</time>
      </trkpt>
      <trkpt lat="43.52694" lon="5.53535">
        <ele>369.2</ele>
        <time>2021-11-16T14:23:38Z</time>
      </trkpt>
      <trkpt lat="43.52694" lon="5.53544">
        <ele>390.5</ele>
        <time>2021-11-16T14:23:44Z</time>
      </trkpt>
      <trkpt lat="43.52694" lon="5.53552">
        <ele>390.9</ele>
        <time>2021-11-16T14:23:49Z</time>
      </trkpt>
      <trkpt lat="43.52692" lon="5.53559">
        <ele>396.3</ele>
        <time>2021-11-16T14:23:54Z</time>
      </trkpt>
      <trkpt lat="43.52692" lon="5.53566">
        <ele>387.1</ele>
        <time>2021-11-16T14:23:59Z</time>
      </trkpt>
      <trkpt lat="43.52691" lon="5.53574">
        <ele>371.2</ele>
        <time>2021-11-16T14:24:05Z</time>
      </trkpt>
      <trkpt lat="43.5269" lon="5.53584">
        <ele>369.1</ele>
        <time>2021-11-16T14:24:11Z</time>
      </trkpt>
      <trkpt lat="43.52688" lon="5.53591">
        <ele>365.3</ele>
        <time>2021-11-16T14:24:17Z</time>
      </trkpt>
      <trkpt lat="43.52686" lon="5.53599">
        <ele>386</ele>
        <time>2021-11-16T14:24:23Z</time>
      </trkpt>
      <trkpt lat="43.52685" lon="5.53605">
        <ele>378.3</ele>
        <time>2021-11-16T14:24:28Z</time>
      </trkpt>
      <trkpt lat="43.52683" lon="5.53613">
        <ele>382.4</ele>
        <time>2021-11-16T14:24:33Z</time>
      </trkpt>
      <trkpt lat="43.52681" lon="5.53622">
        <ele>388.2</ele>
        <time>2021-11-16T14:24:38Z</time>
      </trkpt>
      <trkpt lat="43.52678" lon="5.53632">
        <ele>392</ele>
        <time>2021-11-16T14:24:44Z</time>
      </trkpt>
      <trkpt lat="43.52674" lon="5.53641">
        <ele>354.4</ele>
        <time>2021-11-16T14:24:50Z</time>
      </trkpt>
      <trkpt lat="43.5267" lon="5.53646">
        <ele>392.7</ele>
        <time>2021-11-16T14:24:56Z</time>
      </trkpt>
      <trkpt lat="43.52667" lon="5.53651">
        <ele>386</ele>
        <time>2021-11-16T14:25:01Z</time>
      </trkpt>
      <trkpt lat="43.52663" lon="5.53655">
        <ele>369.6</ele>
        <time>2021-11-16T14:25:06Z</time>
      </trkpt>
      <trkpt lat="43.52655" lon="5.53657">
        <ele>371</ele>
        <time>2021-11-16T14:25:12Z</time>
      </trkpt>
      <trkpt lat="43.52649" lon="5.53654">
        <ele>376.1</ele>
        <time>2021-11-16T14:25:17Z</time>
      </trkpt>
      <trkpt lat="43.52643" lon="5.5365">
        <ele>370.9</ele>
        <time>2021-11-16T14:25:23Z</time>
      </trkpt>
      <trkpt lat="43.52637" lon="5.53647">
        <ele>382</ele>
        <time>2021-11-16T14:25:29Z</time>
      </trkpt>
      <trkpt lat="43.52632" lon="5.53643">
        <ele>376.5</ele>
        <time>2021-11-16T14:25:34Z</time>
      </trkpt>
      <trkpt lat="43.52627" lon="5.53642">
        <ele>382</ele>
        <time>2021-11-16T14:25:39Z</time>
      </trkpt>
      <trkpt lat="43.52621" lon="5.53643">
        <ele>376.3</ele>
        <time>2021-11-16T14:25:45Z</time>
      </trkpt>
      <trkpt lat="43.52614" lon="5.53644">
        <ele>375.1</ele>
        <time>2021-11-16T14:25:51Z</time>
      </trkpt>
      <trkpt lat="43.5261" lon="5.53648">
        <ele>374.8</ele>
        <time>2021-11-16T14:25:56Z</time>
      </trkpt>
      <trkpt lat="43.52602" lon="5.53653">
        <ele>378.6</ele>
        <time>2021-11-16T14:26:02Z</time>
      </trkpt>
      <trkpt lat="43.52597" lon="5.53655">
        <ele>375</ele>
        <time>2021-11-16T14:26:07Z</time>
      </trkpt>
      <trkpt lat="43.52593" lon="5.53657">
        <ele>387.4</ele>
        <time>2021-11-16T14:26:13Z</time>
      </trkpt>
      <trkpt lat="43.52586" lon="5.53657">
        <ele>354.5</ele>
        <time>2021-11-16T14:26:19Z</time>
      </trkpt>
      <trkpt lat="43.52583" lon="5.53657">
        <ele>371.2</ele>
        <time>2021-11-16T14:26:25Z</time>
      </trkpt>
      <trkpt lat="43.52581" lon="5.53659">
        <ele>365.8</ele>
        <time>2021-11-16T14:26:30Z</time>
      </trkpt>
      <trkpt lat="43.52576" lon="5.53662">
        <ele>389.3</ele>
        <time>2021-11-16T14:26:36Z</time>
      </trkpt>
      <trkpt lat="43.52572" lon="5.53664">
        <ele>354.5</ele>
        <time>2021-11-16T14:26:41Z</time>
      </trkpt>
      <trkpt lat="43.52567" lon="5.53669">
        <ele>384.5</ele>
        <time>2021-11-16T14:26:47Z</time>
      </trkpt>
      <trkpt lat="43.5256" lon="5.53673">
        <ele>366.7</ele>
        <time>2021-11-16T14:26:53Z</time>
      </trkpt>
      <trkpt lat="43.52556" lon="5.53679">
        <ele>368</ele>
        <time>2021-11-16T14:26:58Z</time>
      </trkpt>
      <trkpt lat="43.52555" lon="5.53688">
        <ele>359.3</ele>
        <time>2021-11-16T14:27:03Z</time>
      </trkpt>
      <trkpt lat="43.52554" lon="5.53694">
        <ele>392.2</ele>
        <time>2021-11-16T14:27:09Z</time>
      </trkpt>
      <trkpt lat="43.52553" lon="5.53696">
        <ele>364.8</ele>
        <time>2021-11-16T14:27:14Z</time>
      </trkpt>
      <trkpt lat="43.52551" lon="5.537">
        <ele>363.1</ele>
        <time>2021-11-16T14:27:19Z</time>
      </trkpt>
      <trkpt lat="43.52551" lon="5.53706">
        <ele>376.2</ele>
        <time>2021-11-16T14:27:25Z</time>
      </trkpt>
      <trkpt lat="43.5255" lon="5.53712">
        <ele>353.8</ele>
        <time>2021-11-16T14:27:30Z</time>
      </trkpt>
      <trkpt lat="43.5255" lon="5.53715">
        <ele>371.6</ele>
        <time>2021-11-16T14:27:36Z</time>
      </trkpt>
      <trkpt lat="43.5255" lon="5.53719">
        <ele>372.5</ele>
        <time>2021-11-16T14:27:41Z</time>
      </trkpt>
      <trkpt lat="43.52552" lon="5.53728">
        <ele>365</ele>
        <time>2021-11-16T14:27:47Z</time>
      </trkpt>
      <trkpt lat="43.52554" lon="5.53736">
        <ele>371.2</ele>
        <time>2021-11-16T14:27:53Z</time>
      </trkpt>
      <trkpt lat="43.52556" lon="5.53743">
        <ele>371.1</ele>
        <time>2021-11-16T14:27:59Z</time>
      </trkpt>
      <trkpt lat="43.52559" lon="5.5375">
        <ele>368.9</ele>
        <time>2021-11-16T14:28:05Z</time>
      </trkpt>
      <trkpt lat="43.52561" lon="5.53756">
        <ele>368.6</ele>
        <time>2021-11-16T14:28:10Z</time>
      </trkpt>
      <trkpt lat="43.52562" lon="5.53761">
        <ele>372.4</ele>
        <time>2021-11-16T14:28:15Z</time>
      </trkpt>
      <trkpt lat="43.52562" lon="5.53759">
        <ele>357.7</ele>
        <time>2021-11-16T14:28:21Z</time>
      </trkpt>
      <trkpt lat="43.52562" lon="5.53759">
        <ele>366.6</ele>
        <time>2021-11-16T14:28:26Z</time>
      </trkpt>
      <trkpt lat="43.52561" lon="5.53758">
        <ele>366.2</ele>
        <time>2021-11-16T14:28:32Z</time>
      </trkpt>
      <trkpt lat="43.52561" lon="5.53758">
        <ele>375.8</ele>
        <time>2021-11-16T14:28:38Z</time>
      </trkpt>
      <trkpt lat="43.52563" lon="5.53761">
        <ele>378.1</ele>
        <time>2021-11-16T14:28:43Z</time>
      </trkpt>
      <trkpt lat="43.52566" lon="5.53769">
        <ele>363.2</ele>
        <time>2021-11-16T14:28:49Z</time>
      </trkpt>
      <trkpt lat="43.52569" lon="5.53779">
        <ele>363.3</ele>
        <time>2021-11-16T14:28:55Z</time>
      </trkpt>
      <trkpt lat="43.52572" lon="5.53786">
        <ele>367.8</ele>
        <time>2021-11-16T14:29:00Z</time>
      </trkpt>
      <trkpt lat="43.52575" lon="5.53795">
        <ele>368.3</ele>
        <time>2021-11-16T14:29:06Z</time>
      </trkpt>
      <trkpt lat="43.52577" lon="5.53803">
        <ele>360.3</ele>
        <time>2021-11-16T14:29:12Z</time>
      </trkpt>
      <trkpt lat="43.52578" lon="5.53812">
        <ele>355.2</ele>
        <time>2021-11-16T14:29:17Z</time>
      </trkpt>
      <trkpt lat="43.52578" lon="5.53821">
        <ele>375.5</ele>
        <time>2021-11-16T14:29:22Z</time>
      </trkpt>
      <trkpt lat="43.52579" lon="5.53829">
        <ele>375.6</ele>
        <time>2021-11-16T14:29:27Z</time>
      </trkpt>
      <trkpt lat="43.5258" lon="5.53836">
        <ele>355.7</ele>
        <time>2021-11-16T14:29:32Z</time>
      </trkpt>
      <trkpt lat="43.52581" lon="5.53846">
        <ele>391.5</ele>
        <time>2021-11-16T14:29:38Z</time>
      </trkpt>
      <trkpt lat="43.52582" lon="5.53853">
        <ele>378.1</ele>
        <time>2021-11-16T14:29:43Z</time>
      </trkpt>
      <trkpt lat="43.52583" lon="5.5386">
        <ele>357.9</ele>
        <time>2021-11-16T14:29:48Z</time>
      </trkpt>
      <trkpt lat="43.52584" lon="5.53869">
        <ele>362.8</ele>
        <time>2021-11-16T14:29:54Z</time>
      </trkpt>
      <trkpt lat="43.52583" lon="5.53875">
        <ele>360.9</ele>
        <time>2021-11-16T14:30:00Z</time>
      </trkpt>
      <trkpt lat="43.52582" lon="5.53881">
        <ele>376.9</ele>
        <time>2021-11-16T14:30:05Z</time>
      </trkpt>
      <trkpt lat="43.52582" lon="5.5389">
        <ele>363.7</ele>
        <time>2021-11-16T14:30:11Z</time>
      </trkpt>
      <trkpt lat="43.52583" lon="5.53896">
        <ele>366.4</ele>
        <time>2021-11-16T14:30:16Z</time>
      </trkpt>
      <trkpt lat="43.52583" lon="5.53902">
        <ele>369.7</ele>
        <time>2021-11-16T14:30:22Z</time>
      </trkpt>
      <trkpt lat="43.52583" lon="5.53906">
        <ele>351</ele>
        <time>2021-11-16T14:30:27Z</time>
      </trkpt>
      <trkpt lat="43.52583" lon="5.53913">
        <ele>367.6</ele>
        <time>2021-11-16T14:30:32Z</time>
      </trkpt>
      <trkpt lat="43.52583" lon="5.5392">
        <ele>367.9</ele>
        <time>2021-11-16T14:30:37Z</time>
      </trkpt>
      <trkpt lat="43.52582" lon="5.53923">
        <ele>373.8</ele>
        <time>2021-11-16T14:30:43Z</time>
      </trkpt>
      <trkpt lat="43.52582" lon="5.53928">
        <ele>364.3</ele>
        <time>2021-11-16T14:30:49Z</time>
      </trkpt>
      <trkpt lat="43.52581" lon="5.53936">
        <ele>366.1</ele>
        <time>2021-11-16T14:30:55Z</time>
      </trkpt>
      <trkpt lat="43.52581" lon="5.53941">
        <ele>373.1</ele>
        <time>2021-11-16T14:31:00Z</time>
      </trkpt>
      <trkpt lat="43.5258" lon="5.53949">
        <ele>359.7</ele>
        <time>2021-11-16T14:31:06Z</time>
      </trkpt>
      <trkpt lat="43.52579" lon="5.53954">
        <ele>365.4</ele>
        <time>2021-11-16T14:31:11Z</time>
      </trkpt>
      <trkpt lat="43.5258" lon="5.53961">
        <ele>375.2</ele>
        <time>2021-11-16T14:31:17Z</time>
      </trkpt>
      <trkpt lat="43.52581" lon="5.53968">
        <ele>363</ele>
        <time>2021-11-16T14:31:22Z</time>
      </trkpt>
      <trkpt lat="43.52581" lon="5.53974">
        <ele>353.4</ele>
        <time>2021-11-16T14:31:27Z</time>
      </trkpt>
      <trkpt lat="43.52581" lon="5.5398">
        <ele>346.8</ele>
        <time>2021-11-16T14:31:32Z</time>
      </trkpt>
      <trkpt lat="43.5258" lon="5.5399">
        <ele>370.9</ele>
        <time>2021-11-16T14:31:38Z</time>
      </trkpt>
      <trkpt lat="43.5258" lon="5.53997">
        <ele>375.3</ele>
        <time>2021-11-16T14:31:44Z</time>
      </trkpt>
      <trkpt lat="43.52579" lon="5.54004">
        <ele>342.9</ele>
        <time>2021-11-16T14:31:50Z</time>
      </trkpt>
      <trkpt lat="43.52579" lon="5.54012">
        <ele>356.4</ele>
        <time>2021-11-16T14:31:56Z</time>
      </trkpt>
      <trkpt lat="43.52577" lon="5.54018">
        <ele>347.4</ele>
        <time>2021-11-16T14:32:01Z</time>
      </trkpt>
      <trkpt lat="43.52576" lon="5.54027">
        <ele>350.1</ele>
        <time>2021-11-16T14:32:07Z</time>
      </trkpt>
      <trkpt lat="43.52573" lon="5.54034">
        <ele>327.3</ele>
        <time>2021-11-16T14:32:12Z</time>
      </trkpt>
      <trkpt lat="43.52568" lon="5.54041">
        <ele>355.1</ele>
        <time>2021-11-16T14:32:18Z</time>
      </trkpt>
      <trkpt lat="43.52566" lon="5.54047">
        <ele>348.1</ele>
        <time>2021-11-16T14:32:23Z</time>
      </trkpt>
      <trkpt lat="43.52564" lon="5.54054">
        <ele>348.1</ele>
        <time>2021-11-16T14:32:29Z</time>
      </trkpt>
      <trkpt lat="43.52561" lon="5.54061">
        <ele>356.7</ele>
        <time>2021-11-16T14:32:35Z</time>
      </trkpt>
      <trkpt lat="43.52561" lon="5.54067">
        <ele>350.6</ele>
        <time>2021-11-16T14:32:41Z</time>
      </trkpt>
      <trkpt lat="43.5256" lon="5.54074">
        <ele>331.4</ele>
        <time>2021-11-16T14:32:47Z</time>
      </trkpt>
      <trkpt lat="43.52558" lon="5.54082">
        <ele>353.4</ele>
        <time>2021-11-16T14:32:52Z</time>
      </trkpt>
      <trkpt lat="43.5256" lon="5.54091">
        <ele>340.1</ele>
        <time>2021-11-16T14:32:57Z</time>
      </trkpt>
      <trkpt lat="43.52562" lon="5.54098">
        <ele>344.9</ele>
        <time>2021-11-16T14:33:03Z</time>
      </trkpt>
      <trkpt lat="43.52566" lon="5.54106">
        <ele>361.8</ele>
        <time>2021-11-16T14:33:09Z</time>
      </trkpt>
      <trkpt lat="43.5257" lon="5.54115">
        <ele>349.6</ele>
        <time>2021-11-16T14:33:15Z</time>
      </trkpt>
      <trkpt lat="43.52572" lon="5.54122">
        <ele>354.8</ele>
        <time>2021-11-16T14:33:21Z</time>
      </trkpt>
      <trkpt lat="43.52573" lon="5.54121">
        <ele>336.3</ele>
        <time>2021-11-16T14:33:27Z</time>
      </trkpt>
      <trkpt lat="43.52572" lon="5.54128">
        <ele>334.1</ele>
        <time>2021-11-16T14:33:32Z</time>
      </trkpt>
      <trkpt lat="43.52572" lon="5.54134">
        <ele>333</ele>
        <time>2021-11-16T14:33:37Z</time>
      </trkpt>
      <trkpt lat="43.52569" lon="5.54142">
        <ele>353.5</ele>
        <time>2021-11-16T14:33:43Z</time>
      </trkpt>
      <trkpt lat="43.52565" lon="5.54148">
        <ele>333.4</ele>
        <time>2021-11-16T14:33:49Z</time>
      </trkpt>
      <trkpt lat="43.52561" lon="5.54154">
        <ele>340.7</ele>
        <time>2021-11-16T14:33:55Z</time>
      </trkpt>
      <trkpt lat="43.52558" lon="5.54163">
        <ele>334.8</ele>
        <time>2021-11-16T14:34:01Z</time>
      </trkpt>
      <trkpt lat="43.52558" lon="5.54173">
        <ele>335.9</ele>
        <time>2021-11-16T14:34:07Z</time>
      </trkpt>
      <trkpt lat="43.52561" lon="5.54182">
        <ele>337.2</ele>
        <time>2021-11-16T14:34:12Z</time>
      </trkpt>
      <trkpt lat="43.52564" lon="5.5419">
        <ele>344.1</ele>
        <time>2021-11-16T14:34:18Z</time>
      </trkpt>
      <trkpt lat="43.52564" lon="5.54197">
        <ele>344.1</ele>
        <time>2021-11-16T14:34:23Z</time>
      </trkpt>
      <trkpt lat="43.52564" lon="5.54207">
        <ele>327.9</ele>
        <time>2021-11-16T14:34:29Z</time>
      </trkpt>
      <trkpt lat="43.52562" lon="5.54214">
        <ele>339.4</ele>
        <time>2021-11-16T14:34:34Z</time>
      </trkpt>
      <trkpt lat="43.5256" lon="5.54223">
        <ele>325.1</ele>
        <time>2021-11-16T14:34:40Z</time>
      </trkpt>
      <trkpt lat="43.52558" lon="5.54229">
        <ele>345.2</ele>
        <time>2021-11-16T14:34:45Z</time>
      </trkpt>
      <trkpt lat="43.52558" lon="5.54239">
        <ele>345.2</ele>
        <time>2021-11-16T14:34:51Z</time>
      </trkpt>
      <trkpt lat="43.52556" lon="5.54246">
        <ele>333</ele>
        <time>2021-11-16T14:34:56Z</time>
      </trkpt>
      <trkpt lat="43.52555" lon="5.54254">
        <ele>343.4</ele>
        <time>2021-11-16T14:35:02Z</time>
      </trkpt>
      <trkpt lat="43.52553" lon="5.54262">
        <ele>325.3</ele>
        <time>2021-11-16T14:35:08Z</time>
      </trkpt>
      <trkpt lat="43.52551" lon="5.54269">
        <ele>347.2</ele>
        <time>2021-11-16T14:35:13Z</time>
      </trkpt>
      <trkpt lat="43.52549" lon="5.54275">
        <ele>317.8</ele>
        <time>2021-11-16T14:35:18Z</time>
      </trkpt>
      <trkpt lat="43.52548" lon="5.54282">
        <ele>334.4</ele>
        <time>2021-11-16T14:35:24Z</time>
      </trkpt>
      <trkpt lat="43.52547" lon="5.54291">
        <ele>337.4</ele>
        <time>2021-11-16T14:35:29Z</time>
      </trkpt>
      <trkpt lat="43.52544" lon="5.54301">
        <ele>333.7</ele>
        <time>2021-11-16T14:35:35Z</time>
      </trkpt>
      <trkpt lat="43.52541" lon="5.54309">
        <ele>330.2</ele>
        <time>2021-11-16T14:35:41Z</time>
      </trkpt>
      <trkpt lat="43.5254" lon="5.54319">
        <ele>341.3</ele>
        <time>2021-11-16T14:35:47Z</time>
      </trkpt>
      <trkpt lat="43.52541" lon="5.54326">
        <ele>331.5</ele>
        <time>2021-11-16T14:35:53Z</time>
      </trkpt>
      <trkpt lat="43.52542" lon="5.54336">
        <ele>339.7</ele>
        <time>2021-11-16T14:35:59Z</time>
      </trkpt>
      <trkpt lat="43.52544" lon="5.54345">
        <ele>315.3</ele>
        <time>2021-11-16T14:36:05Z</time>
      </trkpt>
      <trkpt lat="43.52546" lon="5.54353">
        <ele>338.3</ele>
        <time>2021-11-16T14:36:11Z</time>
      </trkpt>
      <trkpt lat="43.52546" lon="5.54361">
        <ele>326.1</ele>
        <time>2021-11-16T14:36:17Z</time>
      </trkpt>
      <trkpt lat="43.52548" lon="5.5437">
        <ele>342.3</ele>
        <time>2021-11-16T14:36:23Z</time>
      </trkpt>
      <trkpt lat="43.52548" lon="5.54376">
        <ele>330.9</ele>
        <time>2021-11-16T14:36:28Z</time>
      </trkpt>
      <trkpt lat="43.52548" lon="5.54383">
        <ele>325.2</ele>
        <time>2021-11-16T14:36:33Z</time>
      </trkpt>
      <trkpt lat="43.5255" lon="5.54393">
        <ele>317.1</ele>
        <time>2021-11-16T14:36:39Z</time>
      </trkpt>
      <trkpt lat="43.5255" lon="5.54401">
        <ele>318.4</ele>
        <time>2021-11-16T14:36:45Z</time>
      </trkpt>
      <trkpt lat="43.52549" lon="5.54408">
        <ele>319.5</ele>
        <time>2021-11-16T14:36:50Z</time>
      </trkpt>
      <trkpt lat="43.52551" lon="5.54415">
        <ele>324.5</ele>
        <time>2021-11-16T14:36:55Z</time>
      </trkpt>
      <trkpt lat="43.52553" lon="5.54421">
        <ele>333.4</ele>
        <time>2021-11-16T14:37:00Z</time>
      </trkpt>
      <trkpt lat="43.52556" lon="5.54427">
        <ele>320.1</ele>
        <time>2021-11-16T14:37:06Z</time>
      </trkpt>
      <trkpt lat="43.52558" lon="5.54435">
        <ele>319.5</ele>
        <time>2021-11-16T14:37:12Z</time>
      </trkpt>
      <trkpt lat="43.52559" lon="5.54443">
        <ele>322</ele>
        <time>2021-11-16T14:37:18Z</time>
      </trkpt>
      <trkpt lat="43.52561" lon="5.54451">
        <ele>320.3</ele>
        <time>2021-11-16T14:37:24Z</time>
      </trkpt>
      <trkpt lat="43.52561" lon="5.54458">
        <ele>314</ele>
        <time>2021-11-16T14:37:29Z</time>
      </trkpt>
      <trkpt lat="43.52562" lon="5.54466">
        <ele>313.4</ele>
        <time>2021-11-16T14:37:34Z</time>
      </trkpt>
      <trkpt lat="43.52563" lon="5.54473">
        <ele>335.9</ele>
        <time>2021-11-16T14:37:39Z</time>
      </trkpt>
      <trkpt lat="43.52563" lon="5.5448">
        <ele>321.7</ele>
        <time>2021-11-16T14:37:44Z</time>
      </trkpt>
      <trkpt lat="43.52564" lon="5.54487">
        <ele>299.4</ele>
        <time>2021-11-16T14:37:50Z</time>
      </trkpt>
      <trkpt lat="43.52564" lon="5.54491">
        <ele>316.5</ele>
        <time>2021-11-16T14:37:55Z</time>
      </trkpt>
      <trkpt lat="43.52566" lon="5.54499">
        <ele>313.8</ele>
        <time>2021-11-16T14:38:01Z</time>
      </trkpt>
      <trkpt lat="43.52566" lon="5.54506">
        <ele>321.2</ele>
        <time>2021-11-16T14:38:07Z</time>
      </trkpt>
      <trkpt lat="43.52567" lon="5.54515">
        <ele>311.5</ele>
        <time>2021-11-16T14:38:12Z</time>
      </trkpt>
      <trkpt lat="43.52567" lon="5.54521">
        <ele>316.9</ele>
        <time>2021-11-16T14:38:18Z</time>
      </trkpt>
      <trkpt lat="43.52563" lon="5.54528">
        <ele>325.8</ele>
        <time>2021-11-16T14:38:24Z</time>
      </trkpt>
      <trkpt lat="43.52558" lon="5.54533">
        <ele>308.9</ele>
        <time>2021-11-16T14:38:29Z</time>
      </trkpt>
      <trkpt lat="43.52554" lon="5.5454">
        <ele>315.3</ele>
        <time>2021-11-16T14:38:35Z</time>
      </trkpt>
      <trkpt lat="43.52551" lon="5.54546">
        <ele>311.4</ele>
        <time>2021-11-16T14:38:40Z</time>
      </trkpt>
      <trkpt lat="43.52549" lon="5.54555">
        <ele>311.8</ele>
        <time>2021-11-16T14:38:46Z</time>
      </trkpt>
      <trkpt lat="43.52546" lon="5.54564">
        <ele>303</ele>
        <time>2021-11-16T14:38:52Z</time>
      </trkpt>
      <trkpt lat="43.52544" lon="5.54573">
        <ele>297.4</ele>
        <time>2021-11-16T14:38:58Z</time>
      </trkpt>
      <trkpt lat="43.5254" lon="5.5458">
        <ele>305.8</ele>
        <time>2021-11-16T14:39:03Z</time>
      </trkpt>
      <trkpt lat="43.52536" lon="5.54587">
        <ele>310.2</ele>
        <time>2021-11-16T14:39:09Z</time>
      </trkpt>
      <trkpt lat="43.52532" lon="5.54593">
        <ele>310.1</ele>
        <time>2021-11-16T14:39:15Z</time>
      </trkpt>
      <trkpt lat="43.52528" lon="5.546">
        <ele>302.8</ele>
        <time>2021-11-16T14:39:20Z</time>
      </trkpt>
      <trkpt lat="43.52525" lon="5.54605">
        <ele>287.4</ele>
        <time>2021-11-16T14:39:25Z</time>
      </trkpt>
      <trkpt lat="43.5252" lon="5.5461">
        <ele>308.7</ele>
        <time>2021-11-16T14:39:30Z</time>
      </trkpt>
      <trkpt lat="43.52517" lon="5.54618">
        <ele>293</ele>
        <time>2021-11-16T14:39:36Z</time>
      </trkpt>
      <trkpt lat="43.52514" lon="5.54624">
        <ele>285</ele>
        <time>2021-11-16T14:39:41Z</time>
      </trkpt>
      <trkpt lat="43.52511" lon="5.54631">
        <ele>287</ele>
        <time>2021-11-16T14:39:46Z</time>
      </trkpt>
      <trkpt lat="43.52509" lon="5.54637">
        <ele>314</ele>
        <time>2021-11-16T14:39:52Z</time>
      </trkpt>
      <trkpt lat="43.52505" lon="5.54642">
        <ele>306.3</ele>
        <time>2021-11-16T14:39:57Z</time>
      </trkpt>
      <trkpt lat="43.52501" lon="5.5465">
        <ele>312.1</ele>
        <time>2021-11-16T14:40:03Z</time>
      </trkpt>
      <trkpt lat="43.52496" lon="5.54658">
        <ele>306</ele>
        <time>2021-11-16T14:40:08Z</time>
      </trkpt>
      <trkpt lat="43.52493" lon="5.54667">
        <ele>314.3</ele>
        <time>2021-11-16T14:40:14Z</time>
      </trkpt>
      <trkpt lat="43.5249" lon="5.54672">
        <ele>305.1</ele>
        <time>2021-11-16T14:40:19Z</time>
      </trkpt>
      <trkpt lat="43.52486" lon="5.5468">
        <ele>295.5</ele>
        <time>2021-11-16T14:40:25Z</time>
      </trkpt>
      <trkpt lat="43.52483" lon="5.54687">
        <ele>321.3</ele>
        <time>2021-11-16T14:40:30Z</time>
      </trkpt>
      <trkpt lat="43.52478" lon="5.54693">
        <ele>311.9</ele>
        <time>2021-11-16T14:40:36Z</time>
      </trkpt>
      <trkpt lat="43.52474" lon="5.54699">
        <ele>280.2</ele>
        <time>2021-11-16T14:40:41Z</time>
      </trkpt>
      <trkpt lat="43.52469" lon="5.54705">
        <ele>303.3</ele>
        <time>2021-11-16T14:40:47Z</time>
      </trkpt>
      <trkpt lat="43.52465" lon="5.5471">
        <ele>293.2</ele>
        <time>2021-11-16T14:40:52Z</time>
      </trkpt>
      <trkpt lat="43.5246" lon="5.54711">
        <ele>302.5</ele>
        <time>2021-11-16T14:40:58Z</time>
      </trkpt>
      <trkpt lat="43.52455" lon="5.54714">
        <ele>297.4</ele>
        <time>2021-11-16T14:41:03Z</time>
      </trkpt>
      <trkpt lat="43.52448" lon="5.54719">
        <ele>295.2</ele>
        <time>2021-11-16T14:41:09Z</time>
      </trkpt>
      <trkpt lat="43.52443" lon="5.54721">
        <ele>310</ele>
        <time>2021-11-16T14:41:14Z</time>
      </trkpt>
      <trkpt lat="43.52438" lon="5.54725">
        <ele>295.4</ele>
        <time>2021-11-16T14:41:20Z</time>
      </trkpt>
      <trkpt lat="43.52434" lon="5.54729">
        <ele>290.2</ele>
        <time>2021-11-16T14:41:25Z</time>
      </trkpt>
      <trkpt lat="43.52429" lon="5.54733">
        <ele>295.6</ele>
        <time>2021-11-16T14:41:31Z</time>
      </trkpt>
      <trkpt lat="43.52424" lon="5.54735">
        <ele>282.5</ele>
        <time>2021-11-16T14:41:37Z</time>
      </trkpt>
      <trkpt lat="43.5242" lon="5.54736">
        <ele>285.4</ele>
        <time>2021-11-16T14:41:42Z</time>
      </trkpt>
      <trkpt lat="43.52417" lon="5.54739">
        <ele>277.8</ele>
        <time>2021-11-16T14:41:47Z</time>
      </trkpt>
      <trkpt lat="43.52417" lon="5.54739">
        <ele>310</ele>
        <time>2021-11-16T14:41:53Z</time>
      </trkpt>
      <trkpt lat="43.52418" lon="5.54739">
        <ele>283.4</ele>
        <time>2021-11-16T14:41:59Z</time>
      </trkpt>
    </trkseg>
  </trk>
</gpx>